<?xml version="1.0" encoding="UTF-8" standalone="no" ?>
<gpx xmlns="http://www.topografix.com/GPX/1/1" xmlns:xsi="http://www.w3.org/2001/XMLSchema-instance" xsi:schemaLocation="http://www.topografix.com/GPX/1/1 http://www.topografix.com/GPX/1/1/gpx.xsd" version="1.1" creator="VisuGPX - https://www.visugpx.com">
  <metadata>
    <name>sommet courmudiere -2020-02-02-163249</name>
    <desc><![CDATA[[b][i][url][img][/img][/url][/i][/b]
]]></desc>
  </metadata>
  <trk>
    <name><![CDATA[MA-Rando-2020-02-02-163249]]></name>
    <trkseg>
      <trkpt lat="42.93731" lon="0.91178">
        <ele>889</ele>
        <time>2020-02-02T09:00:01Z</time>
      </trkpt>
      <trkpt lat="42.93725" lon="0.91188">
        <ele>886</ele>
        <time>2020-02-02T09:03:52Z</time>
      </trkpt>
      <trkpt lat="42.93733" lon="0.91197">
        <ele>887</ele>
        <time>2020-02-02T09:04:06Z</time>
      </trkpt>
      <trkpt lat="42.9374" lon="0.91206">
        <ele>890</ele>
        <time>2020-02-02T09:04:16Z</time>
      </trkpt>
      <trkpt lat="42.9375" lon="0.91211">
        <ele>890</ele>
        <time>2020-02-02T09:04:25Z</time>
      </trkpt>
      <trkpt lat="42.93758" lon="0.91217">
        <ele>891</ele>
        <time>2020-02-02T09:04:35Z</time>
      </trkpt>
      <trkpt lat="42.93768" lon="0.91217">
        <ele>889</ele>
        <time>2020-02-02T09:04:42Z</time>
      </trkpt>
      <trkpt lat="42.93777" lon="0.91217">
        <ele>890</ele>
        <time>2020-02-02T09:04:50Z</time>
      </trkpt>
      <trkpt lat="42.93786" lon="0.91218">
        <ele>893</ele>
        <time>2020-02-02T09:05:01Z</time>
      </trkpt>
      <trkpt lat="42.93795" lon="0.91214">
        <ele>889</ele>
        <time>2020-02-02T09:05:08Z</time>
      </trkpt>
      <trkpt lat="42.93805" lon="0.91214">
        <ele>890</ele>
        <time>2020-02-02T09:05:17Z</time>
      </trkpt>
      <trkpt lat="42.93814" lon="0.91212">
        <ele>890</ele>
        <time>2020-02-02T09:05:26Z</time>
      </trkpt>
      <trkpt lat="42.93823" lon="0.91213">
        <ele>896</ele>
        <time>2020-02-02T09:05:40Z</time>
      </trkpt>
      <trkpt lat="42.93832" lon="0.91213">
        <ele>899</ele>
        <time>2020-02-02T09:05:52Z</time>
      </trkpt>
      <trkpt lat="42.93842" lon="0.91214">
        <ele>899</ele>
        <time>2020-02-02T09:06:02Z</time>
      </trkpt>
      <trkpt lat="42.93851" lon="0.91208">
        <ele>901</ele>
        <time>2020-02-02T09:06:13Z</time>
      </trkpt>
      <trkpt lat="42.93854" lon="0.91197">
        <ele>903</ele>
        <time>2020-02-02T09:06:24Z</time>
      </trkpt>
      <trkpt lat="42.93855" lon="0.91184">
        <ele>911</ele>
        <time>2020-02-02T09:06:37Z</time>
      </trkpt>
      <trkpt lat="42.9386" lon="0.91172">
        <ele>906</ele>
        <time>2020-02-02T09:06:48Z</time>
      </trkpt>
      <trkpt lat="42.93868" lon="0.91163">
        <ele>909</ele>
        <time>2020-02-02T09:07:00Z</time>
      </trkpt>
      <trkpt lat="42.93876" lon="0.91156">
        <ele>909</ele>
        <time>2020-02-02T09:07:09Z</time>
      </trkpt>
      <trkpt lat="42.93883" lon="0.91149">
        <ele>911</ele>
        <time>2020-02-02T09:07:20Z</time>
      </trkpt>
      <trkpt lat="42.93892" lon="0.91143">
        <ele>911</ele>
        <time>2020-02-02T09:07:28Z</time>
      </trkpt>
      <trkpt lat="42.93902" lon="0.91139">
        <ele>910</ele>
        <time>2020-02-02T09:07:38Z</time>
      </trkpt>
      <trkpt lat="42.93907" lon="0.91129">
        <ele>916</ele>
        <time>2020-02-02T09:07:55Z</time>
      </trkpt>
      <trkpt lat="42.93916" lon="0.91123">
        <ele>917</ele>
        <time>2020-02-02T09:08:06Z</time>
      </trkpt>
      <trkpt lat="42.93925" lon="0.91118">
        <ele>918</ele>
        <time>2020-02-02T09:08:18Z</time>
      </trkpt>
      <trkpt lat="42.93933" lon="0.91109">
        <ele>920</ele>
        <time>2020-02-02T09:08:28Z</time>
      </trkpt>
      <trkpt lat="42.93942" lon="0.91103">
        <ele>917</ele>
        <time>2020-02-02T09:08:36Z</time>
      </trkpt>
      <trkpt lat="42.93951" lon="0.91099">
        <ele>929</ele>
        <time>2020-02-02T09:08:55Z</time>
      </trkpt>
      <trkpt lat="42.93958" lon="0.91091">
        <ele>935</ele>
        <time>2020-02-02T09:09:12Z</time>
      </trkpt>
      <trkpt lat="42.93966" lon="0.91085">
        <ele>936</ele>
        <time>2020-02-02T09:09:20Z</time>
      </trkpt>
      <trkpt lat="42.93974" lon="0.9108">
        <ele>939</ele>
        <time>2020-02-02T09:09:30Z</time>
      </trkpt>
      <trkpt lat="42.93983" lon="0.91076">
        <ele>944</ele>
        <time>2020-02-02T09:09:47Z</time>
      </trkpt>
      <trkpt lat="42.9399" lon="0.91067">
        <ele>945</ele>
        <time>2020-02-02T09:09:57Z</time>
      </trkpt>
      <trkpt lat="42.93998" lon="0.91061">
        <ele>945</ele>
        <time>2020-02-02T09:10:07Z</time>
      </trkpt>
      <trkpt lat="42.94006" lon="0.91053">
        <ele>948</ele>
        <time>2020-02-02T09:10:21Z</time>
      </trkpt>
      <trkpt lat="42.94014" lon="0.91045">
        <ele>950</ele>
        <time>2020-02-02T09:10:31Z</time>
      </trkpt>
      <trkpt lat="42.94021" lon="0.91037">
        <ele>950</ele>
        <time>2020-02-02T09:10:40Z</time>
      </trkpt>
      <trkpt lat="42.9403" lon="0.91032">
        <ele>952</ele>
        <time>2020-02-02T09:10:50Z</time>
      </trkpt>
      <trkpt lat="42.94039" lon="0.91026">
        <ele>950</ele>
        <time>2020-02-02T09:10:59Z</time>
      </trkpt>
      <trkpt lat="42.94047" lon="0.91019">
        <ele>948</ele>
        <time>2020-02-02T09:11:08Z</time>
      </trkpt>
      <trkpt lat="42.94054" lon="0.91012">
        <ele>948</ele>
        <time>2020-02-02T09:11:19Z</time>
      </trkpt>
      <trkpt lat="42.94062" lon="0.91005">
        <ele>945</ele>
        <time>2020-02-02T09:11:27Z</time>
      </trkpt>
      <trkpt lat="42.94069" lon="0.90997">
        <ele>942</ele>
        <time>2020-02-02T09:11:33Z</time>
      </trkpt>
      <trkpt lat="42.94078" lon="0.90991">
        <ele>946</ele>
        <time>2020-02-02T09:11:49Z</time>
      </trkpt>
      <trkpt lat="42.94085" lon="0.90983">
        <ele>945</ele>
        <time>2020-02-02T09:11:57Z</time>
      </trkpt>
      <trkpt lat="42.94092" lon="0.90972">
        <ele>950</ele>
        <time>2020-02-02T09:12:10Z</time>
      </trkpt>
      <trkpt lat="42.941" lon="0.90969">
        <ele>951</ele>
        <time>2020-02-02T09:12:21Z</time>
      </trkpt>
      <trkpt lat="42.94108" lon="0.90961">
        <ele>950</ele>
        <time>2020-02-02T09:12:29Z</time>
      </trkpt>
      <trkpt lat="42.94117" lon="0.90954">
        <ele>951</ele>
        <time>2020-02-02T09:12:39Z</time>
      </trkpt>
      <trkpt lat="42.94124" lon="0.90946">
        <ele>952</ele>
        <time>2020-02-02T09:12:52Z</time>
      </trkpt>
      <trkpt lat="42.94133" lon="0.90942">
        <ele>952</ele>
        <time>2020-02-02T09:12:57Z</time>
      </trkpt>
      <trkpt lat="42.94138" lon="0.90932">
        <ele>955</ele>
        <time>2020-02-02T09:13:12Z</time>
      </trkpt>
      <trkpt lat="42.94146" lon="0.90925">
        <ele>954</ele>
        <time>2020-02-02T09:13:19Z</time>
      </trkpt>
      <trkpt lat="42.94155" lon="0.90919">
        <ele>954</ele>
        <time>2020-02-02T09:13:25Z</time>
      </trkpt>
      <trkpt lat="42.94163" lon="0.90911">
        <ele>950</ele>
        <time>2020-02-02T09:13:34Z</time>
      </trkpt>
      <trkpt lat="42.94167" lon="0.90899">
        <ele>958</ele>
        <time>2020-02-02T09:13:48Z</time>
      </trkpt>
      <trkpt lat="42.94175" lon="0.90893">
        <ele>954</ele>
        <time>2020-02-02T09:13:56Z</time>
      </trkpt>
      <trkpt lat="42.94182" lon="0.90885">
        <ele>954</ele>
        <time>2020-02-02T09:14:19Z</time>
      </trkpt>
      <trkpt lat="42.94191" lon="0.90879">
        <ele>953</ele>
        <time>2020-02-02T09:14:28Z</time>
      </trkpt>
      <trkpt lat="42.94197" lon="0.9087">
        <ele>956</ele>
        <time>2020-02-02T09:14:43Z</time>
      </trkpt>
      <trkpt lat="42.94203" lon="0.90861">
        <ele>962</ele>
        <time>2020-02-02T09:14:59Z</time>
      </trkpt>
      <trkpt lat="42.94212" lon="0.90856">
        <ele>964</ele>
        <time>2020-02-02T09:15:11Z</time>
      </trkpt>
      <trkpt lat="42.94215" lon="0.90841">
        <ele>966</ele>
        <time>2020-02-02T09:15:25Z</time>
      </trkpt>
      <trkpt lat="42.94223" lon="0.90834">
        <ele>969</ele>
        <time>2020-02-02T09:15:40Z</time>
      </trkpt>
      <trkpt lat="42.94229" lon="0.90824">
        <ele>973</ele>
        <time>2020-02-02T09:16:08Z</time>
      </trkpt>
      <trkpt lat="42.94237" lon="0.9082">
        <ele>971</ele>
        <time>2020-02-02T09:16:13Z</time>
      </trkpt>
      <trkpt lat="42.94245" lon="0.90811">
        <ele>974</ele>
        <time>2020-02-02T09:16:21Z</time>
      </trkpt>
      <trkpt lat="42.94254" lon="0.90806">
        <ele>974</ele>
        <time>2020-02-02T09:16:34Z</time>
      </trkpt>
      <trkpt lat="42.94257" lon="0.90793">
        <ele>975</ele>
        <time>2020-02-02T09:16:42Z</time>
      </trkpt>
      <trkpt lat="42.94263" lon="0.90784">
        <ele>975</ele>
        <time>2020-02-02T09:16:51Z</time>
      </trkpt>
      <trkpt lat="42.94271" lon="0.90775">
        <ele>982</ele>
        <time>2020-02-02T09:17:05Z</time>
      </trkpt>
      <trkpt lat="42.9428" lon="0.90772">
        <ele>985</ele>
        <time>2020-02-02T09:17:16Z</time>
      </trkpt>
      <trkpt lat="42.94288" lon="0.90764">
        <ele>981</ele>
        <time>2020-02-02T09:17:24Z</time>
      </trkpt>
      <trkpt lat="42.94292" lon="0.90752">
        <ele>979</ele>
        <time>2020-02-02T09:17:31Z</time>
      </trkpt>
      <trkpt lat="42.94296" lon="0.90741">
        <ele>977</ele>
        <time>2020-02-02T09:17:40Z</time>
      </trkpt>
      <trkpt lat="42.94302" lon="0.9073">
        <ele>976</ele>
        <time>2020-02-02T09:17:48Z</time>
      </trkpt>
      <trkpt lat="42.94304" lon="0.90717">
        <ele>974</ele>
        <time>2020-02-02T09:17:55Z</time>
      </trkpt>
      <trkpt lat="42.94307" lon="0.90704">
        <ele>976</ele>
        <time>2020-02-02T09:18:08Z</time>
      </trkpt>
      <trkpt lat="42.94307" lon="0.90692">
        <ele>981</ele>
        <time>2020-02-02T09:18:20Z</time>
      </trkpt>
      <trkpt lat="42.94309" lon="0.9068">
        <ele>983</ele>
        <time>2020-02-02T09:18:28Z</time>
      </trkpt>
      <trkpt lat="42.94306" lon="0.90668">
        <ele>984</ele>
        <time>2020-02-02T09:18:39Z</time>
      </trkpt>
      <trkpt lat="42.9431" lon="0.90656">
        <ele>986</ele>
        <time>2020-02-02T09:18:48Z</time>
      </trkpt>
      <trkpt lat="42.94313" lon="0.90642">
        <ele>986</ele>
        <time>2020-02-02T09:19:06Z</time>
      </trkpt>
      <trkpt lat="42.94311" lon="0.90629">
        <ele>985</ele>
        <time>2020-02-02T09:19:10Z</time>
      </trkpt>
      <trkpt lat="42.94315" lon="0.90616">
        <ele>986</ele>
        <time>2020-02-02T09:19:25Z</time>
      </trkpt>
      <trkpt lat="42.94315" lon="0.90603">
        <ele>987</ele>
        <time>2020-02-02T09:19:32Z</time>
      </trkpt>
      <trkpt lat="42.94319" lon="0.90591">
        <ele>986</ele>
        <time>2020-02-02T09:19:44Z</time>
      </trkpt>
      <trkpt lat="42.94324" lon="0.90579">
        <ele>989</ele>
        <time>2020-02-02T09:19:54Z</time>
      </trkpt>
      <trkpt lat="42.94325" lon="0.90564">
        <ele>998</ele>
        <time>2020-02-02T09:20:19Z</time>
      </trkpt>
      <trkpt lat="42.94323" lon="0.90552">
        <ele>1002</ele>
        <time>2020-02-02T09:20:31Z</time>
      </trkpt>
      <trkpt lat="42.94321" lon="0.90538">
        <ele>1007</ele>
        <time>2020-02-02T09:20:42Z</time>
      </trkpt>
      <trkpt lat="42.94316" lon="0.90527">
        <ele>1010</ele>
        <time>2020-02-02T09:20:53Z</time>
      </trkpt>
      <trkpt lat="42.94314" lon="0.90515">
        <ele>1009</ele>
        <time>2020-02-02T09:21:02Z</time>
      </trkpt>
      <trkpt lat="42.94313" lon="0.90502">
        <ele>1008</ele>
        <time>2020-02-02T09:21:11Z</time>
      </trkpt>
      <trkpt lat="42.94312" lon="0.90489">
        <ele>1009</ele>
        <time>2020-02-02T09:21:22Z</time>
      </trkpt>
      <trkpt lat="42.9431" lon="0.90476">
        <ele>1006</ele>
        <time>2020-02-02T09:21:30Z</time>
      </trkpt>
      <trkpt lat="42.9431" lon="0.90462">
        <ele>1005</ele>
        <time>2020-02-02T09:21:39Z</time>
      </trkpt>
      <trkpt lat="42.94313" lon="0.9045">
        <ele>1005</ele>
        <time>2020-02-02T09:21:48Z</time>
      </trkpt>
      <trkpt lat="42.94315" lon="0.90437">
        <ele>1005</ele>
        <time>2020-02-02T09:21:58Z</time>
      </trkpt>
      <trkpt lat="42.94315" lon="0.90423">
        <ele>1007</ele>
        <time>2020-02-02T09:22:08Z</time>
      </trkpt>
      <trkpt lat="42.94315" lon="0.9041">
        <ele>1008</ele>
        <time>2020-02-02T09:22:19Z</time>
      </trkpt>
      <trkpt lat="42.94314" lon="0.90398">
        <ele>1016</ele>
        <time>2020-02-02T09:22:37Z</time>
      </trkpt>
      <trkpt lat="42.94317" lon="0.90386">
        <ele>1017</ele>
        <time>2020-02-02T09:22:47Z</time>
      </trkpt>
      <trkpt lat="42.94323" lon="0.90375">
        <ele>1023</ele>
        <time>2020-02-02T09:22:59Z</time>
      </trkpt>
      <trkpt lat="42.94324" lon="0.90362">
        <ele>1021</ele>
        <time>2020-02-02T09:23:05Z</time>
      </trkpt>
      <trkpt lat="42.94327" lon="0.90351">
        <ele>1027</ele>
        <time>2020-02-02T09:23:16Z</time>
      </trkpt>
      <trkpt lat="42.94331" lon="0.90339">
        <ele>1024</ele>
        <time>2020-02-02T09:23:25Z</time>
      </trkpt>
      <trkpt lat="42.9434" lon="0.90334">
        <ele>1025</ele>
        <time>2020-02-02T09:23:35Z</time>
      </trkpt>
      <trkpt lat="42.94348" lon="0.90328">
        <ele>1022</ele>
        <time>2020-02-02T09:23:42Z</time>
      </trkpt>
      <trkpt lat="42.94358" lon="0.9033">
        <ele>1022</ele>
        <time>2020-02-02T09:23:50Z</time>
      </trkpt>
      <trkpt lat="42.94368" lon="0.90324">
        <ele>1023</ele>
        <time>2020-02-02T09:24:04Z</time>
      </trkpt>
      <trkpt lat="42.94376" lon="0.90316">
        <ele>1025</ele>
        <time>2020-02-02T09:24:15Z</time>
      </trkpt>
      <trkpt lat="42.94384" lon="0.90311">
        <ele>1026</ele>
        <time>2020-02-02T09:24:31Z</time>
      </trkpt>
      <trkpt lat="42.94395" lon="0.90308">
        <ele>1023</ele>
        <time>2020-02-02T09:24:39Z</time>
      </trkpt>
      <trkpt lat="42.94406" lon="0.90306">
        <ele>1029</ele>
        <time>2020-02-02T09:24:52Z</time>
      </trkpt>
      <trkpt lat="42.94416" lon="0.90303">
        <ele>1035</ele>
        <time>2020-02-02T09:25:01Z</time>
      </trkpt>
      <trkpt lat="42.94424" lon="0.90298">
        <ele>1038</ele>
        <time>2020-02-02T09:25:10Z</time>
      </trkpt>
      <trkpt lat="42.94433" lon="0.90295">
        <ele>1037</ele>
        <time>2020-02-02T09:25:17Z</time>
      </trkpt>
      <trkpt lat="42.94441" lon="0.90288">
        <ele>1034</ele>
        <time>2020-02-02T09:25:26Z</time>
      </trkpt>
      <trkpt lat="42.94452" lon="0.90283">
        <ele>1037</ele>
        <time>2020-02-02T09:25:46Z</time>
      </trkpt>
      <trkpt lat="42.94461" lon="0.90276">
        <ele>1036</ele>
        <time>2020-02-02T09:25:50Z</time>
      </trkpt>
      <trkpt lat="42.94469" lon="0.90269">
        <ele>1038</ele>
        <time>2020-02-02T09:25:57Z</time>
      </trkpt>
      <trkpt lat="42.94479" lon="0.90262">
        <ele>1038</ele>
        <time>2020-02-02T09:26:04Z</time>
      </trkpt>
      <trkpt lat="42.94488" lon="0.90262">
        <ele>1045</ele>
        <time>2020-02-02T09:26:17Z</time>
      </trkpt>
      <trkpt lat="42.94496" lon="0.90254">
        <ele>1048</ele>
        <time>2020-02-02T09:26:28Z</time>
      </trkpt>
      <trkpt lat="42.94504" lon="0.90246">
        <ele>1046</ele>
        <time>2020-02-02T09:26:39Z</time>
      </trkpt>
      <trkpt lat="42.94512" lon="0.9024">
        <ele>1050</ele>
        <time>2020-02-02T09:26:48Z</time>
      </trkpt>
      <trkpt lat="42.94519" lon="0.90231">
        <ele>1048</ele>
        <time>2020-02-02T09:26:54Z</time>
      </trkpt>
      <trkpt lat="42.94528" lon="0.90238">
        <ele>1048</ele>
        <time>2020-02-02T09:27:02Z</time>
      </trkpt>
      <trkpt lat="42.94536" lon="0.90229">
        <ele>1047</ele>
        <time>2020-02-02T09:27:10Z</time>
      </trkpt>
      <trkpt lat="42.94544" lon="0.90222">
        <ele>1047</ele>
        <time>2020-02-02T09:27:20Z</time>
      </trkpt>
      <trkpt lat="42.94553" lon="0.90219">
        <ele>1049</ele>
        <time>2020-02-02T09:27:32Z</time>
      </trkpt>
      <trkpt lat="42.94562" lon="0.9021">
        <ele>1047</ele>
        <time>2020-02-02T09:27:36Z</time>
      </trkpt>
      <trkpt lat="42.94571" lon="0.90207">
        <ele>1050</ele>
        <time>2020-02-02T09:27:45Z</time>
      </trkpt>
      <trkpt lat="42.94577" lon="0.90198">
        <ele>1048</ele>
        <time>2020-02-02T09:27:50Z</time>
      </trkpt>
      <trkpt lat="42.94587" lon="0.90197">
        <ele>1046</ele>
        <time>2020-02-02T09:27:58Z</time>
      </trkpt>
      <trkpt lat="42.94593" lon="0.90187">
        <ele>1048</ele>
        <time>2020-02-02T09:28:08Z</time>
      </trkpt>
      <trkpt lat="42.94602" lon="0.90182">
        <ele>1051</ele>
        <time>2020-02-02T09:28:18Z</time>
      </trkpt>
      <trkpt lat="42.94611" lon="0.90176">
        <ele>1051</ele>
        <time>2020-02-02T09:28:26Z</time>
      </trkpt>
      <trkpt lat="42.9462" lon="0.90173">
        <ele>1054</ele>
        <time>2020-02-02T09:28:35Z</time>
      </trkpt>
      <trkpt lat="42.9463" lon="0.90168">
        <ele>1052</ele>
        <time>2020-02-02T09:28:43Z</time>
      </trkpt>
      <trkpt lat="42.94639" lon="0.90166">
        <ele>1051</ele>
        <time>2020-02-02T09:28:51Z</time>
      </trkpt>
      <trkpt lat="42.94647" lon="0.90158">
        <ele>1051</ele>
        <time>2020-02-02T09:28:58Z</time>
      </trkpt>
      <trkpt lat="42.94655" lon="0.90153">
        <ele>1051</ele>
        <time>2020-02-02T09:29:09Z</time>
      </trkpt>
      <trkpt lat="42.94661" lon="0.90143">
        <ele>1049</ele>
        <time>2020-02-02T09:29:16Z</time>
      </trkpt>
      <trkpt lat="42.94669" lon="0.90137">
        <ele>1049</ele>
        <time>2020-02-02T09:29:25Z</time>
      </trkpt>
      <trkpt lat="42.94675" lon="0.90125">
        <ele>1056</ele>
        <time>2020-02-02T09:29:37Z</time>
      </trkpt>
      <trkpt lat="42.94685" lon="0.90123">
        <ele>1058</ele>
        <time>2020-02-02T09:29:48Z</time>
      </trkpt>
      <trkpt lat="42.94695" lon="0.90121">
        <ele>1058</ele>
        <time>2020-02-02T09:29:55Z</time>
      </trkpt>
      <trkpt lat="42.94705" lon="0.9011">
        <ele>1062</ele>
        <time>2020-02-02T09:30:34Z</time>
      </trkpt>
      <trkpt lat="42.94714" lon="0.9011">
        <ele>1059</ele>
        <time>2020-02-02T09:30:39Z</time>
      </trkpt>
      <trkpt lat="42.94725" lon="0.90102">
        <ele>1069</ele>
        <time>2020-02-02T09:30:54Z</time>
      </trkpt>
      <trkpt lat="42.94735" lon="0.90099">
        <ele>1073</ele>
        <time>2020-02-02T09:31:02Z</time>
      </trkpt>
      <trkpt lat="42.94745" lon="0.90101">
        <ele>1072</ele>
        <time>2020-02-02T09:31:07Z</time>
      </trkpt>
      <trkpt lat="42.94754" lon="0.90098">
        <ele>1071</ele>
        <time>2020-02-02T09:31:13Z</time>
      </trkpt>
      <trkpt lat="42.94765" lon="0.90101">
        <ele>1067</ele>
        <time>2020-02-02T09:31:19Z</time>
      </trkpt>
      <trkpt lat="42.94773" lon="0.90107">
        <ele>1063</ele>
        <time>2020-02-02T09:31:25Z</time>
      </trkpt>
      <trkpt lat="42.94784" lon="0.90109">
        <ele>1061</ele>
        <time>2020-02-02T09:31:34Z</time>
      </trkpt>
      <trkpt lat="42.94793" lon="0.90111">
        <ele>1062</ele>
        <time>2020-02-02T09:31:42Z</time>
      </trkpt>
      <trkpt lat="42.94802" lon="0.90108">
        <ele>1062</ele>
        <time>2020-02-02T09:31:48Z</time>
      </trkpt>
      <trkpt lat="42.94805" lon="0.9012">
        <ele>1068</ele>
        <time>2020-02-02T09:32:01Z</time>
      </trkpt>
      <trkpt lat="42.94815" lon="0.90119">
        <ele>1067</ele>
        <time>2020-02-02T09:32:10Z</time>
      </trkpt>
      <trkpt lat="42.94825" lon="0.90119">
        <ele>1073</ele>
        <time>2020-02-02T09:32:19Z</time>
      </trkpt>
      <trkpt lat="42.94833" lon="0.90112">
        <ele>1071</ele>
        <time>2020-02-02T09:32:29Z</time>
      </trkpt>
      <trkpt lat="42.94842" lon="0.90111">
        <ele>1083</ele>
        <time>2020-02-02T09:32:50Z</time>
      </trkpt>
      <trkpt lat="42.94852" lon="0.90112">
        <ele>1082</ele>
        <time>2020-02-02T09:33:02Z</time>
      </trkpt>
      <trkpt lat="42.94866" lon="0.90112">
        <ele>1078</ele>
        <time>2020-02-02T09:33:26Z</time>
      </trkpt>
      <trkpt lat="42.94875" lon="0.90116">
        <ele>1076</ele>
        <time>2020-02-02T09:33:31Z</time>
      </trkpt>
      <trkpt lat="42.94884" lon="0.90118">
        <ele>1081</ele>
        <time>2020-02-02T09:33:49Z</time>
      </trkpt>
      <trkpt lat="42.94893" lon="0.90119">
        <ele>1085</ele>
        <time>2020-02-02T09:33:55Z</time>
      </trkpt>
      <trkpt lat="42.94901" lon="0.90114">
        <ele>1091</ele>
        <time>2020-02-02T09:34:05Z</time>
      </trkpt>
      <trkpt lat="42.94913" lon="0.90112">
        <ele>1094</ele>
        <time>2020-02-02T09:34:20Z</time>
      </trkpt>
      <trkpt lat="42.94922" lon="0.90114">
        <ele>1099</ele>
        <time>2020-02-02T09:34:30Z</time>
      </trkpt>
      <trkpt lat="42.9493" lon="0.90122">
        <ele>1097</ele>
        <time>2020-02-02T09:34:36Z</time>
      </trkpt>
      <trkpt lat="42.9494" lon="0.90129">
        <ele>1095</ele>
        <time>2020-02-02T09:34:44Z</time>
      </trkpt>
      <trkpt lat="42.94948" lon="0.90135">
        <ele>1100</ele>
        <time>2020-02-02T09:34:59Z</time>
      </trkpt>
      <trkpt lat="42.94956" lon="0.90143">
        <ele>1104</ele>
        <time>2020-02-02T09:35:08Z</time>
      </trkpt>
      <trkpt lat="42.94966" lon="0.90147">
        <ele>1104</ele>
        <time>2020-02-02T09:35:17Z</time>
      </trkpt>
      <trkpt lat="42.94975" lon="0.90149">
        <ele>1106</ele>
        <time>2020-02-02T09:35:27Z</time>
      </trkpt>
      <trkpt lat="42.9498" lon="0.9016">
        <ele>1111</ele>
        <time>2020-02-02T09:35:41Z</time>
      </trkpt>
      <trkpt lat="42.94987" lon="0.90169">
        <ele>1117</ele>
        <time>2020-02-02T09:35:56Z</time>
      </trkpt>
      <trkpt lat="42.94994" lon="0.90178">
        <ele>1120</ele>
        <time>2020-02-02T09:36:07Z</time>
      </trkpt>
      <trkpt lat="42.94998" lon="0.9019">
        <ele>1121</ele>
        <time>2020-02-02T09:36:15Z</time>
      </trkpt>
      <trkpt lat="42.95003" lon="0.90202">
        <ele>1123</ele>
        <time>2020-02-02T09:36:27Z</time>
      </trkpt>
      <trkpt lat="42.9501" lon="0.90209">
        <ele>1120</ele>
        <time>2020-02-02T09:36:34Z</time>
      </trkpt>
      <trkpt lat="42.95019" lon="0.90213">
        <ele>1114</ele>
        <time>2020-02-02T09:36:42Z</time>
      </trkpt>
      <trkpt lat="42.9502" lon="0.90226">
        <ele>1131</ele>
        <time>2020-02-02T09:37:00Z</time>
      </trkpt>
      <trkpt lat="42.95029" lon="0.9023">
        <ele>1126</ele>
        <time>2020-02-02T09:37:08Z</time>
      </trkpt>
      <trkpt lat="42.95029" lon="0.90244">
        <ele>1126</ele>
        <time>2020-02-02T09:37:15Z</time>
      </trkpt>
      <trkpt lat="42.95035" lon="0.90254">
        <ele>1122</ele>
        <time>2020-02-02T09:37:22Z</time>
      </trkpt>
      <trkpt lat="42.95043" lon="0.90261">
        <ele>1123</ele>
        <time>2020-02-02T09:37:30Z</time>
      </trkpt>
      <trkpt lat="42.9505" lon="0.9027">
        <ele>1124</ele>
        <time>2020-02-02T09:37:40Z</time>
      </trkpt>
      <trkpt lat="42.95055" lon="0.9028">
        <ele>1124</ele>
        <time>2020-02-02T09:37:49Z</time>
      </trkpt>
      <trkpt lat="42.95062" lon="0.90289">
        <ele>1123</ele>
        <time>2020-02-02T09:37:55Z</time>
      </trkpt>
      <trkpt lat="42.95065" lon="0.90302">
        <ele>1122</ele>
        <time>2020-02-02T09:38:01Z</time>
      </trkpt>
      <trkpt lat="42.95075" lon="0.90306">
        <ele>1127</ele>
        <time>2020-02-02T09:38:12Z</time>
      </trkpt>
      <trkpt lat="42.95078" lon="0.90319">
        <ele>1126</ele>
        <time>2020-02-02T09:38:20Z</time>
      </trkpt>
      <trkpt lat="42.95082" lon="0.9033">
        <ele>1127</ele>
        <time>2020-02-02T09:38:28Z</time>
      </trkpt>
      <trkpt lat="42.95092" lon="0.90332">
        <ele>1129</ele>
        <time>2020-02-02T09:39:24Z</time>
      </trkpt>
      <trkpt lat="42.95097" lon="0.90343">
        <ele>1136</ele>
        <time>2020-02-02T09:43:49Z</time>
      </trkpt>
      <trkpt lat="42.95101" lon="0.90355">
        <ele>1134</ele>
        <time>2020-02-02T09:44:00Z</time>
      </trkpt>
      <trkpt lat="42.95106" lon="0.90367">
        <ele>1132</ele>
        <time>2020-02-02T09:44:09Z</time>
      </trkpt>
      <trkpt lat="42.95112" lon="0.90377">
        <ele>1131</ele>
        <time>2020-02-02T09:44:18Z</time>
      </trkpt>
      <trkpt lat="42.95118" lon="0.90387">
        <ele>1129</ele>
        <time>2020-02-02T09:44:26Z</time>
      </trkpt>
      <trkpt lat="42.95114" lon="0.904">
        <ele>1125</ele>
        <time>2020-02-02T09:44:37Z</time>
      </trkpt>
      <trkpt lat="42.9512" lon="0.90409">
        <ele>1125</ele>
        <time>2020-02-02T09:44:47Z</time>
      </trkpt>
      <trkpt lat="42.95127" lon="0.90418">
        <ele>1124</ele>
        <time>2020-02-02T09:44:54Z</time>
      </trkpt>
      <trkpt lat="42.95135" lon="0.90426">
        <ele>1127</ele>
        <time>2020-02-02T09:45:00Z</time>
      </trkpt>
      <trkpt lat="42.9514" lon="0.90437">
        <ele>1124</ele>
        <time>2020-02-02T09:45:07Z</time>
      </trkpt>
      <trkpt lat="42.95149" lon="0.90441">
        <ele>1125</ele>
        <time>2020-02-02T09:45:13Z</time>
      </trkpt>
      <trkpt lat="42.95158" lon="0.90449">
        <ele>1125</ele>
        <time>2020-02-02T09:45:26Z</time>
      </trkpt>
      <trkpt lat="42.95168" lon="0.90454">
        <ele>1124</ele>
        <time>2020-02-02T09:45:36Z</time>
      </trkpt>
      <trkpt lat="42.95172" lon="0.90466">
        <ele>1121</ele>
        <time>2020-02-02T09:45:44Z</time>
      </trkpt>
      <trkpt lat="42.95179" lon="0.90474">
        <ele>1122</ele>
        <time>2020-02-02T09:45:51Z</time>
      </trkpt>
      <trkpt lat="42.95183" lon="0.90487">
        <ele>1125</ele>
        <time>2020-02-02T09:46:03Z</time>
      </trkpt>
      <trkpt lat="42.95187" lon="0.905">
        <ele>1126</ele>
        <time>2020-02-02T09:46:11Z</time>
      </trkpt>
      <trkpt lat="42.95196" lon="0.90509">
        <ele>1124</ele>
        <time>2020-02-02T09:46:21Z</time>
      </trkpt>
      <trkpt lat="42.95204" lon="0.90515">
        <ele>1119</ele>
        <time>2020-02-02T09:46:27Z</time>
      </trkpt>
      <trkpt lat="42.95212" lon="0.9052">
        <ele>1125</ele>
        <time>2020-02-02T09:46:35Z</time>
      </trkpt>
      <trkpt lat="42.95223" lon="0.90527">
        <ele>1132</ele>
        <time>2020-02-02T09:47:00Z</time>
      </trkpt>
      <trkpt lat="42.95233" lon="0.90528">
        <ele>1131</ele>
        <time>2020-02-02T09:47:05Z</time>
      </trkpt>
      <trkpt lat="42.95242" lon="0.90531">
        <ele>1132</ele>
        <time>2020-02-02T09:47:09Z</time>
      </trkpt>
      <trkpt lat="42.95251" lon="0.90536">
        <ele>1134</ele>
        <time>2020-02-02T09:47:17Z</time>
      </trkpt>
      <trkpt lat="42.9526" lon="0.90537">
        <ele>1140</ele>
        <time>2020-02-02T09:47:27Z</time>
      </trkpt>
      <trkpt lat="42.95271" lon="0.90527">
        <ele>1140</ele>
        <time>2020-02-02T09:47:56Z</time>
      </trkpt>
      <trkpt lat="42.9528" lon="0.90517">
        <ele>1136</ele>
        <time>2020-02-02T09:47:59Z</time>
      </trkpt>
      <trkpt lat="42.95287" lon="0.90509">
        <ele>1138</ele>
        <time>2020-02-02T09:48:04Z</time>
      </trkpt>
      <trkpt lat="42.95294" lon="0.90499">
        <ele>1139</ele>
        <time>2020-02-02T09:48:12Z</time>
      </trkpt>
      <trkpt lat="42.953" lon="0.90487">
        <ele>1145</ele>
        <time>2020-02-02T09:48:35Z</time>
      </trkpt>
      <trkpt lat="42.95307" lon="0.90479">
        <ele>1150</ele>
        <time>2020-02-02T09:48:43Z</time>
      </trkpt>
      <trkpt lat="42.9531" lon="0.90468">
        <ele>1148</ele>
        <time>2020-02-02T09:48:55Z</time>
      </trkpt>
      <trkpt lat="42.95317" lon="0.90456">
        <ele>1150</ele>
        <time>2020-02-02T09:49:14Z</time>
      </trkpt>
      <trkpt lat="42.95323" lon="0.90446">
        <ele>1151</ele>
        <time>2020-02-02T09:49:23Z</time>
      </trkpt>
      <trkpt lat="42.95328" lon="0.90434">
        <ele>1152</ele>
        <time>2020-02-02T09:49:32Z</time>
      </trkpt>
      <trkpt lat="42.95331" lon="0.9042">
        <ele>1158</ele>
        <time>2020-02-02T09:49:42Z</time>
      </trkpt>
      <trkpt lat="42.95335" lon="0.90408">
        <ele>1157</ele>
        <time>2020-02-02T09:49:51Z</time>
      </trkpt>
      <trkpt lat="42.95338" lon="0.90396">
        <ele>1158</ele>
        <time>2020-02-02T09:50:00Z</time>
      </trkpt>
      <trkpt lat="42.9534" lon="0.90384">
        <ele>1156</ele>
        <time>2020-02-02T09:50:08Z</time>
      </trkpt>
      <trkpt lat="42.95342" lon="0.90371">
        <ele>1157</ele>
        <time>2020-02-02T09:50:16Z</time>
      </trkpt>
      <trkpt lat="42.95346" lon="0.90359">
        <ele>1160</ele>
        <time>2020-02-02T09:50:25Z</time>
      </trkpt>
      <trkpt lat="42.95349" lon="0.90347">
        <ele>1161</ele>
        <time>2020-02-02T09:50:33Z</time>
      </trkpt>
      <trkpt lat="42.9535" lon="0.90333">
        <ele>1164</ele>
        <time>2020-02-02T09:50:49Z</time>
      </trkpt>
      <trkpt lat="42.9535" lon="0.9032">
        <ele>1168</ele>
        <time>2020-02-02T09:51:04Z</time>
      </trkpt>
      <trkpt lat="42.95353" lon="0.90307">
        <ele>1169</ele>
        <time>2020-02-02T09:51:21Z</time>
      </trkpt>
      <trkpt lat="42.95352" lon="0.90293">
        <ele>1166</ele>
        <time>2020-02-02T09:51:43Z</time>
      </trkpt>
      <trkpt lat="42.95352" lon="0.90275">
        <ele>1167</ele>
        <time>2020-02-02T09:51:49Z</time>
      </trkpt>
      <trkpt lat="42.95349" lon="0.90264">
        <ele>1167</ele>
        <time>2020-02-02T09:51:54Z</time>
      </trkpt>
      <trkpt lat="42.95348" lon="0.90251">
        <ele>1169</ele>
        <time>2020-02-02T09:52:08Z</time>
      </trkpt>
      <trkpt lat="42.95342" lon="0.90242">
        <ele>1169</ele>
        <time>2020-02-02T09:52:16Z</time>
      </trkpt>
      <trkpt lat="42.95336" lon="0.90233">
        <ele>1169</ele>
        <time>2020-02-02T09:52:22Z</time>
      </trkpt>
      <trkpt lat="42.95329" lon="0.90224">
        <ele>1169</ele>
        <time>2020-02-02T09:52:32Z</time>
      </trkpt>
      <trkpt lat="42.95322" lon="0.90216">
        <ele>1171</ele>
        <time>2020-02-02T09:52:41Z</time>
      </trkpt>
      <trkpt lat="42.95322" lon="0.90202">
        <ele>1175</ele>
        <time>2020-02-02T09:52:50Z</time>
      </trkpt>
      <trkpt lat="42.95323" lon="0.9019">
        <ele>1177</ele>
        <time>2020-02-02T09:52:57Z</time>
      </trkpt>
      <trkpt lat="42.95315" lon="0.90183">
        <ele>1180</ele>
        <time>2020-02-02T09:53:05Z</time>
      </trkpt>
      <trkpt lat="42.95308" lon="0.90176">
        <ele>1180</ele>
        <time>2020-02-02T09:53:15Z</time>
      </trkpt>
      <trkpt lat="42.95309" lon="0.90162">
        <ele>1183</ele>
        <time>2020-02-02T09:53:21Z</time>
      </trkpt>
      <trkpt lat="42.95305" lon="0.90148">
        <ele>1185</ele>
        <time>2020-02-02T09:55:25Z</time>
      </trkpt>
      <trkpt lat="42.95308" lon="0.90136">
        <ele>1189</ele>
        <time>2020-02-02T09:58:43Z</time>
      </trkpt>
      <trkpt lat="42.95311" lon="0.90122">
        <ele>1191</ele>
        <time>2020-02-02T09:58:54Z</time>
      </trkpt>
      <trkpt lat="42.9531" lon="0.90109">
        <ele>1190</ele>
        <time>2020-02-02T09:59:03Z</time>
      </trkpt>
      <trkpt lat="42.95309" lon="0.90096">
        <ele>1191</ele>
        <time>2020-02-02T09:59:14Z</time>
      </trkpt>
      <trkpt lat="42.95313" lon="0.90084">
        <ele>1192</ele>
        <time>2020-02-02T09:59:34Z</time>
      </trkpt>
      <trkpt lat="42.95316" lon="0.90072">
        <ele>1189</ele>
        <time>2020-02-02T09:59:47Z</time>
      </trkpt>
      <trkpt lat="42.9532" lon="0.9006">
        <ele>1193</ele>
        <time>2020-02-02T10:00:04Z</time>
      </trkpt>
      <trkpt lat="42.95319" lon="0.90047">
        <ele>1195</ele>
        <time>2020-02-02T10:00:14Z</time>
      </trkpt>
      <trkpt lat="42.95323" lon="0.90036">
        <ele>1196</ele>
        <time>2020-02-02T10:00:19Z</time>
      </trkpt>
      <trkpt lat="42.95323" lon="0.90023">
        <ele>1198</ele>
        <time>2020-02-02T10:00:29Z</time>
      </trkpt>
      <trkpt lat="42.95322" lon="0.90008">
        <ele>1200</ele>
        <time>2020-02-02T10:00:41Z</time>
      </trkpt>
      <trkpt lat="42.95315" lon="0.9">
        <ele>1202</ele>
        <time>2020-02-02T10:00:53Z</time>
      </trkpt>
      <trkpt lat="42.95313" lon="0.89986">
        <ele>1209</ele>
        <time>2020-02-02T10:01:05Z</time>
      </trkpt>
      <trkpt lat="42.95318" lon="0.89971">
        <ele>1207</ele>
        <time>2020-02-02T10:01:09Z</time>
      </trkpt>
      <trkpt lat="42.9532" lon="0.89957">
        <ele>1207</ele>
        <time>2020-02-02T10:01:15Z</time>
      </trkpt>
      <trkpt lat="42.95312" lon="0.89949">
        <ele>1203</ele>
        <time>2020-02-02T10:01:26Z</time>
      </trkpt>
      <trkpt lat="42.95302" lon="0.89945">
        <ele>1197</ele>
        <time>2020-02-02T10:01:33Z</time>
      </trkpt>
      <trkpt lat="42.95291" lon="0.89944">
        <ele>1197</ele>
        <time>2020-02-02T10:01:40Z</time>
      </trkpt>
      <trkpt lat="42.95295" lon="0.89933">
        <ele>1198</ele>
        <time>2020-02-02T10:01:46Z</time>
      </trkpt>
      <trkpt lat="42.95291" lon="0.89922">
        <ele>1201</ele>
        <time>2020-02-02T10:01:56Z</time>
      </trkpt>
      <trkpt lat="42.95289" lon="0.89909">
        <ele>1201</ele>
        <time>2020-02-02T10:02:05Z</time>
      </trkpt>
      <trkpt lat="42.95284" lon="0.89899">
        <ele>1204</ele>
        <time>2020-02-02T10:02:16Z</time>
      </trkpt>
      <trkpt lat="42.95282" lon="0.89886">
        <ele>1207</ele>
        <time>2020-02-02T10:02:27Z</time>
      </trkpt>
      <trkpt lat="42.95281" lon="0.89873">
        <ele>1208</ele>
        <time>2020-02-02T10:02:39Z</time>
      </trkpt>
      <trkpt lat="42.9528" lon="0.8986">
        <ele>1212</ele>
        <time>2020-02-02T10:02:52Z</time>
      </trkpt>
      <trkpt lat="42.95278" lon="0.89846">
        <ele>1214</ele>
        <time>2020-02-02T10:03:02Z</time>
      </trkpt>
      <trkpt lat="42.95277" lon="0.89832">
        <ele>1214</ele>
        <time>2020-02-02T10:03:13Z</time>
      </trkpt>
      <trkpt lat="42.95275" lon="0.8982">
        <ele>1217</ele>
        <time>2020-02-02T10:03:24Z</time>
      </trkpt>
      <trkpt lat="42.95275" lon="0.89808">
        <ele>1219</ele>
        <time>2020-02-02T10:03:32Z</time>
      </trkpt>
      <trkpt lat="42.95274" lon="0.89795">
        <ele>1221</ele>
        <time>2020-02-02T10:03:41Z</time>
      </trkpt>
      <trkpt lat="42.95275" lon="0.89783">
        <ele>1223</ele>
        <time>2020-02-02T10:03:49Z</time>
      </trkpt>
      <trkpt lat="42.95274" lon="0.8977">
        <ele>1228</ele>
        <time>2020-02-02T10:04:00Z</time>
      </trkpt>
      <trkpt lat="42.95277" lon="0.89756">
        <ele>1230</ele>
        <time>2020-02-02T10:04:10Z</time>
      </trkpt>
      <trkpt lat="42.95279" lon="0.89743">
        <ele>1235</ele>
        <time>2020-02-02T10:04:25Z</time>
      </trkpt>
      <trkpt lat="42.95283" lon="0.89732">
        <ele>1234</ele>
        <time>2020-02-02T10:04:34Z</time>
      </trkpt>
      <trkpt lat="42.95288" lon="0.89719">
        <ele>1238</ele>
        <time>2020-02-02T10:04:49Z</time>
      </trkpt>
      <trkpt lat="42.95294" lon="0.89709">
        <ele>1236</ele>
        <time>2020-02-02T10:05:00Z</time>
      </trkpt>
      <trkpt lat="42.953" lon="0.89695">
        <ele>1236</ele>
        <time>2020-02-02T10:05:11Z</time>
      </trkpt>
      <trkpt lat="42.953" lon="0.89681">
        <ele>1242</ele>
        <time>2020-02-02T10:05:22Z</time>
      </trkpt>
      <trkpt lat="42.95295" lon="0.8967">
        <ele>1245</ele>
        <time>2020-02-02T10:05:33Z</time>
      </trkpt>
      <trkpt lat="42.95297" lon="0.89658">
        <ele>1246</ele>
        <time>2020-02-02T10:05:43Z</time>
      </trkpt>
      <trkpt lat="42.95296" lon="0.89644">
        <ele>1245</ele>
        <time>2020-02-02T10:05:54Z</time>
      </trkpt>
      <trkpt lat="42.95297" lon="0.89631">
        <ele>1243</ele>
        <time>2020-02-02T10:06:02Z</time>
      </trkpt>
      <trkpt lat="42.95295" lon="0.89618">
        <ele>1246</ele>
        <time>2020-02-02T10:06:14Z</time>
      </trkpt>
      <trkpt lat="42.95292" lon="0.89604">
        <ele>1244</ele>
        <time>2020-02-02T10:06:29Z</time>
      </trkpt>
      <trkpt lat="42.95289" lon="0.8959">
        <ele>1251</ele>
        <time>2020-02-02T10:06:40Z</time>
      </trkpt>
      <trkpt lat="42.95293" lon="0.89576">
        <ele>1250</ele>
        <time>2020-02-02T10:07:00Z</time>
      </trkpt>
      <trkpt lat="42.95297" lon="0.89565">
        <ele>1248</ele>
        <time>2020-02-02T10:07:05Z</time>
      </trkpt>
      <trkpt lat="42.95293" lon="0.89553">
        <ele>1250</ele>
        <time>2020-02-02T10:07:13Z</time>
      </trkpt>
      <trkpt lat="42.95292" lon="0.8954">
        <ele>1254</ele>
        <time>2020-02-02T10:07:27Z</time>
      </trkpt>
      <trkpt lat="42.95286" lon="0.89529">
        <ele>1252</ele>
        <time>2020-02-02T10:07:36Z</time>
      </trkpt>
      <trkpt lat="42.95288" lon="0.89517">
        <ele>1255</ele>
        <time>2020-02-02T10:07:47Z</time>
      </trkpt>
      <trkpt lat="42.95292" lon="0.89506">
        <ele>1257</ele>
        <time>2020-02-02T10:08:05Z</time>
      </trkpt>
      <trkpt lat="42.95296" lon="0.89493">
        <ele>1255</ele>
        <time>2020-02-02T10:08:09Z</time>
      </trkpt>
      <trkpt lat="42.95294" lon="0.8948">
        <ele>1258</ele>
        <time>2020-02-02T10:08:21Z</time>
      </trkpt>
      <trkpt lat="42.95293" lon="0.89467">
        <ele>1260</ele>
        <time>2020-02-02T10:08:34Z</time>
      </trkpt>
      <trkpt lat="42.95295" lon="0.89454">
        <ele>1267</ele>
        <time>2020-02-02T10:08:52Z</time>
      </trkpt>
      <trkpt lat="42.95297" lon="0.89442">
        <ele>1271</ele>
        <time>2020-02-02T10:09:06Z</time>
      </trkpt>
      <trkpt lat="42.95296" lon="0.89429">
        <ele>1278</ele>
        <time>2020-02-02T10:10:19Z</time>
      </trkpt>
      <trkpt lat="42.95298" lon="0.89415">
        <ele>1283</ele>
        <time>2020-02-02T10:10:37Z</time>
      </trkpt>
      <trkpt lat="42.95297" lon="0.89402">
        <ele>1285</ele>
        <time>2020-02-02T10:13:47Z</time>
      </trkpt>
      <trkpt lat="42.95299" lon="0.89389">
        <ele>1286</ele>
        <time>2020-02-02T10:14:21Z</time>
      </trkpt>
      <trkpt lat="42.95302" lon="0.89377">
        <ele>1285</ele>
        <time>2020-02-02T10:14:36Z</time>
      </trkpt>
      <trkpt lat="42.95303" lon="0.89361">
        <ele>1290</ele>
        <time>2020-02-02T10:14:55Z</time>
      </trkpt>
      <trkpt lat="42.95302" lon="0.89349">
        <ele>1292</ele>
        <time>2020-02-02T10:15:04Z</time>
      </trkpt>
      <trkpt lat="42.953" lon="0.89334">
        <ele>1289</ele>
        <time>2020-02-02T10:15:16Z</time>
      </trkpt>
      <trkpt lat="42.95303" lon="0.8932">
        <ele>1293</ele>
        <time>2020-02-02T10:15:41Z</time>
      </trkpt>
      <trkpt lat="42.95306" lon="0.89308">
        <ele>1295</ele>
        <time>2020-02-02T10:16:06Z</time>
      </trkpt>
      <trkpt lat="42.95309" lon="0.89293">
        <ele>1294</ele>
        <time>2020-02-02T10:16:17Z</time>
      </trkpt>
      <trkpt lat="42.95305" lon="0.8928">
        <ele>1291</ele>
        <time>2020-02-02T10:16:25Z</time>
      </trkpt>
      <trkpt lat="42.95301" lon="0.89269">
        <ele>1295</ele>
        <time>2020-02-02T10:16:50Z</time>
      </trkpt>
      <trkpt lat="42.95294" lon="0.89259">
        <ele>1296</ele>
        <time>2020-02-02T10:17:03Z</time>
      </trkpt>
      <trkpt lat="42.95291" lon="0.89247">
        <ele>1301</ele>
        <time>2020-02-02T10:17:21Z</time>
      </trkpt>
      <trkpt lat="42.95284" lon="0.89238">
        <ele>1298</ele>
        <time>2020-02-02T10:17:31Z</time>
      </trkpt>
      <trkpt lat="42.95287" lon="0.89224">
        <ele>1304</ele>
        <time>2020-02-02T10:17:59Z</time>
      </trkpt>
      <trkpt lat="42.95289" lon="0.89208">
        <ele>1303</ele>
        <time>2020-02-02T10:19:45Z</time>
      </trkpt>
      <trkpt lat="42.95291" lon="0.89196">
        <ele>1315</ele>
        <time>2020-02-02T10:21:59Z</time>
      </trkpt>
      <trkpt lat="42.95291" lon="0.89183">
        <ele>1317</ele>
        <time>2020-02-02T10:22:13Z</time>
      </trkpt>
      <trkpt lat="42.95294" lon="0.8917">
        <ele>1321</ele>
        <time>2020-02-02T10:22:28Z</time>
      </trkpt>
      <trkpt lat="42.95296" lon="0.89158">
        <ele>1318</ele>
        <time>2020-02-02T10:22:34Z</time>
      </trkpt>
      <trkpt lat="42.95297" lon="0.89144">
        <ele>1321</ele>
        <time>2020-02-02T10:22:50Z</time>
      </trkpt>
      <trkpt lat="42.95298" lon="0.89132">
        <ele>1325</ele>
        <time>2020-02-02T10:23:09Z</time>
      </trkpt>
      <trkpt lat="42.9531" lon="0.89129">
        <ele>1336</ele>
        <time>2020-02-02T10:24:16Z</time>
      </trkpt>
      <trkpt lat="42.95318" lon="0.89123">
        <ele>1338</ele>
        <time>2020-02-02T10:24:27Z</time>
      </trkpt>
      <trkpt lat="42.95327" lon="0.89115">
        <ele>1336</ele>
        <time>2020-02-02T10:24:40Z</time>
      </trkpt>
      <trkpt lat="42.95332" lon="0.89101">
        <ele>1339</ele>
        <time>2020-02-02T10:25:51Z</time>
      </trkpt>
      <trkpt lat="42.95335" lon="0.89088">
        <ele>1346</ele>
        <time>2020-02-02T10:30:36Z</time>
      </trkpt>
      <trkpt lat="42.9533" lon="0.89098">
        <ele>1336</ele>
        <time>2020-02-02T10:30:56Z</time>
      </trkpt>
      <trkpt lat="42.95339" lon="0.89104">
        <ele>1345</ele>
        <time>2020-02-02T10:31:21Z</time>
      </trkpt>
      <trkpt lat="42.95346" lon="0.89095">
        <ele>1347</ele>
        <time>2020-02-02T10:31:40Z</time>
      </trkpt>
      <trkpt lat="42.95355" lon="0.89092">
        <ele>1352</ele>
        <time>2020-02-02T10:32:00Z</time>
      </trkpt>
      <trkpt lat="42.95364" lon="0.89087">
        <ele>1356</ele>
        <time>2020-02-02T10:32:25Z</time>
      </trkpt>
      <trkpt lat="42.95372" lon="0.8908">
        <ele>1356</ele>
        <time>2020-02-02T10:32:37Z</time>
      </trkpt>
      <trkpt lat="42.95381" lon="0.89076">
        <ele>1364</ele>
        <time>2020-02-02T10:32:47Z</time>
      </trkpt>
      <trkpt lat="42.95389" lon="0.89069">
        <ele>1366</ele>
        <time>2020-02-02T10:33:07Z</time>
      </trkpt>
      <trkpt lat="42.95389" lon="0.89082">
        <ele>1366</ele>
        <time>2020-02-02T10:33:32Z</time>
      </trkpt>
      <trkpt lat="42.95395" lon="0.89091">
        <ele>1367</ele>
        <time>2020-02-02T10:34:04Z</time>
      </trkpt>
      <trkpt lat="42.95404" lon="0.89092">
        <ele>1372</ele>
        <time>2020-02-02T10:34:22Z</time>
      </trkpt>
      <trkpt lat="42.95411" lon="0.89084">
        <ele>1373</ele>
        <time>2020-02-02T10:34:33Z</time>
      </trkpt>
      <trkpt lat="42.95416" lon="0.89073">
        <ele>1375</ele>
        <time>2020-02-02T10:34:52Z</time>
      </trkpt>
      <trkpt lat="42.9542" lon="0.89061">
        <ele>1379</ele>
        <time>2020-02-02T10:34:59Z</time>
      </trkpt>
      <trkpt lat="42.95425" lon="0.89049">
        <ele>1384</ele>
        <time>2020-02-02T10:35:15Z</time>
      </trkpt>
      <trkpt lat="42.95431" lon="0.8906">
        <ele>1384</ele>
        <time>2020-02-02T10:36:25Z</time>
      </trkpt>
      <trkpt lat="42.95438" lon="0.89071">
        <ele>1384</ele>
        <time>2020-02-02T10:36:33Z</time>
      </trkpt>
      <trkpt lat="42.95439" lon="0.89083">
        <ele>1389</ele>
        <time>2020-02-02T10:36:42Z</time>
      </trkpt>
      <trkpt lat="42.95445" lon="0.89094">
        <ele>1395</ele>
        <time>2020-02-02T10:37:01Z</time>
      </trkpt>
      <trkpt lat="42.95453" lon="0.89102">
        <ele>1401</ele>
        <time>2020-02-02T10:37:12Z</time>
      </trkpt>
      <trkpt lat="42.95459" lon="0.89112">
        <ele>1404</ele>
        <time>2020-02-02T10:37:27Z</time>
      </trkpt>
      <trkpt lat="42.95466" lon="0.89123">
        <ele>1411</ele>
        <time>2020-02-02T10:37:48Z</time>
      </trkpt>
      <trkpt lat="42.95472" lon="0.89132">
        <ele>1418</ele>
        <time>2020-02-02T10:38:07Z</time>
      </trkpt>
      <trkpt lat="42.9548" lon="0.89141">
        <ele>1417</ele>
        <time>2020-02-02T10:38:33Z</time>
      </trkpt>
      <trkpt lat="42.9549" lon="0.89137">
        <ele>1413</ele>
        <time>2020-02-02T10:38:48Z</time>
      </trkpt>
      <trkpt lat="42.95498" lon="0.89131">
        <ele>1414</ele>
        <time>2020-02-02T10:39:03Z</time>
      </trkpt>
      <trkpt lat="42.95504" lon="0.8912">
        <ele>1414</ele>
        <time>2020-02-02T10:39:32Z</time>
      </trkpt>
      <trkpt lat="42.95507" lon="0.89108">
        <ele>1414</ele>
        <time>2020-02-02T10:39:39Z</time>
      </trkpt>
      <trkpt lat="42.95512" lon="0.89098">
        <ele>1415</ele>
        <time>2020-02-02T10:39:51Z</time>
      </trkpt>
      <trkpt lat="42.95517" lon="0.89085">
        <ele>1416</ele>
        <time>2020-02-02T10:40:01Z</time>
      </trkpt>
      <trkpt lat="42.95516" lon="0.89072">
        <ele>1420</ele>
        <time>2020-02-02T10:40:24Z</time>
      </trkpt>
      <trkpt lat="42.95522" lon="0.89062">
        <ele>1425</ele>
        <time>2020-02-02T10:40:38Z</time>
      </trkpt>
      <trkpt lat="42.95527" lon="0.89051">
        <ele>1430</ele>
        <time>2020-02-02T10:40:52Z</time>
      </trkpt>
      <trkpt lat="42.9553" lon="0.89037">
        <ele>1432</ele>
        <time>2020-02-02T10:41:06Z</time>
      </trkpt>
      <trkpt lat="42.95535" lon="0.89025">
        <ele>1435</ele>
        <time>2020-02-02T10:41:29Z</time>
      </trkpt>
      <trkpt lat="42.95538" lon="0.89013">
        <ele>1433</ele>
        <time>2020-02-02T10:41:40Z</time>
      </trkpt>
      <trkpt lat="42.95546" lon="0.89006">
        <ele>1439</ele>
        <time>2020-02-02T10:41:54Z</time>
      </trkpt>
      <trkpt lat="42.95553" lon="0.88997">
        <ele>1440</ele>
        <time>2020-02-02T10:42:06Z</time>
      </trkpt>
      <trkpt lat="42.95562" lon="0.88987">
        <ele>1439</ele>
        <time>2020-02-02T10:42:46Z</time>
      </trkpt>
      <trkpt lat="42.95567" lon="0.88975">
        <ele>1434</ele>
        <time>2020-02-02T10:42:54Z</time>
      </trkpt>
      <trkpt lat="42.95573" lon="0.88966">
        <ele>1437</ele>
        <time>2020-02-02T10:43:04Z</time>
      </trkpt>
      <trkpt lat="42.95577" lon="0.88955">
        <ele>1436</ele>
        <time>2020-02-02T10:43:13Z</time>
      </trkpt>
      <trkpt lat="42.9558" lon="0.88942">
        <ele>1439</ele>
        <time>2020-02-02T10:43:21Z</time>
      </trkpt>
      <trkpt lat="42.95582" lon="0.88925">
        <ele>1444</ele>
        <time>2020-02-02T10:43:34Z</time>
      </trkpt>
      <trkpt lat="42.95581" lon="0.88913">
        <ele>1440</ele>
        <time>2020-02-02T10:43:43Z</time>
      </trkpt>
      <trkpt lat="42.95586" lon="0.889">
        <ele>1440</ele>
        <time>2020-02-02T10:43:56Z</time>
      </trkpt>
      <trkpt lat="42.95591" lon="0.8889">
        <ele>1446</ele>
        <time>2020-02-02T10:44:05Z</time>
      </trkpt>
      <trkpt lat="42.95596" lon="0.88877">
        <ele>1452</ele>
        <time>2020-02-02T10:44:42Z</time>
      </trkpt>
      <trkpt lat="42.956" lon="0.88866">
        <ele>1450</ele>
        <time>2020-02-02T10:44:52Z</time>
      </trkpt>
      <trkpt lat="42.95606" lon="0.88853">
        <ele>1452</ele>
        <time>2020-02-02T10:45:02Z</time>
      </trkpt>
      <trkpt lat="42.95608" lon="0.88841">
        <ele>1454</ele>
        <time>2020-02-02T10:45:11Z</time>
      </trkpt>
      <trkpt lat="42.9561" lon="0.88829">
        <ele>1454</ele>
        <time>2020-02-02T10:45:39Z</time>
      </trkpt>
      <trkpt lat="42.95614" lon="0.88816">
        <ele>1454</ele>
        <time>2020-02-02T10:50:17Z</time>
      </trkpt>
      <trkpt lat="42.95613" lon="0.88803">
        <ele>1453</ele>
        <time>2020-02-02T10:50:29Z</time>
      </trkpt>
      <trkpt lat="42.95615" lon="0.8879">
        <ele>1455</ele>
        <time>2020-02-02T10:50:42Z</time>
      </trkpt>
      <trkpt lat="42.95624" lon="0.88777">
        <ele>1464</ele>
        <time>2020-02-02T10:51:16Z</time>
      </trkpt>
      <trkpt lat="42.95633" lon="0.88767">
        <ele>1467</ele>
        <time>2020-02-02T10:51:34Z</time>
      </trkpt>
      <trkpt lat="42.95638" lon="0.88757">
        <ele>1472</ele>
        <time>2020-02-02T10:51:48Z</time>
      </trkpt>
      <trkpt lat="42.95646" lon="0.88749">
        <ele>1471</ele>
        <time>2020-02-02T10:51:56Z</time>
      </trkpt>
      <trkpt lat="42.95651" lon="0.88738">
        <ele>1470</ele>
        <time>2020-02-02T10:52:08Z</time>
      </trkpt>
      <trkpt lat="42.95657" lon="0.88728">
        <ele>1470</ele>
        <time>2020-02-02T10:52:28Z</time>
      </trkpt>
      <trkpt lat="42.95662" lon="0.88716">
        <ele>1473</ele>
        <time>2020-02-02T10:52:37Z</time>
      </trkpt>
      <trkpt lat="42.95668" lon="0.88703">
        <ele>1474</ele>
        <time>2020-02-02T10:53:02Z</time>
      </trkpt>
      <trkpt lat="42.95674" lon="0.88692">
        <ele>1480</ele>
        <time>2020-02-02T10:53:14Z</time>
      </trkpt>
      <trkpt lat="42.95679" lon="0.88681">
        <ele>1486</ele>
        <time>2020-02-02T10:53:36Z</time>
      </trkpt>
      <trkpt lat="42.95685" lon="0.88671">
        <ele>1482</ele>
        <time>2020-02-02T10:53:48Z</time>
      </trkpt>
      <trkpt lat="42.95688" lon="0.88659">
        <ele>1482</ele>
        <time>2020-02-02T10:53:57Z</time>
      </trkpt>
      <trkpt lat="42.95692" lon="0.88647">
        <ele>1480</ele>
        <time>2020-02-02T10:54:06Z</time>
      </trkpt>
      <trkpt lat="42.95698" lon="0.88636">
        <ele>1489</ele>
        <time>2020-02-02T10:54:19Z</time>
      </trkpt>
      <trkpt lat="42.95704" lon="0.88627">
        <ele>1492</ele>
        <time>2020-02-02T10:54:29Z</time>
      </trkpt>
      <trkpt lat="42.95708" lon="0.88614">
        <ele>1490</ele>
        <time>2020-02-02T10:54:39Z</time>
      </trkpt>
      <trkpt lat="42.9571" lon="0.88601">
        <ele>1485</ele>
        <time>2020-02-02T10:55:22Z</time>
      </trkpt>
      <trkpt lat="42.95719" lon="0.88604">
        <ele>1493</ele>
        <time>2020-02-02T10:56:05Z</time>
      </trkpt>
      <trkpt lat="42.9572" lon="0.88617">
        <ele>1498</ele>
        <time>2020-02-02T10:56:54Z</time>
      </trkpt>
      <trkpt lat="42.95718" lon="0.88629">
        <ele>1498</ele>
        <time>2020-02-02T10:57:04Z</time>
      </trkpt>
      <trkpt lat="42.95717" lon="0.88642">
        <ele>1496</ele>
        <time>2020-02-02T10:57:11Z</time>
      </trkpt>
      <trkpt lat="42.9571" lon="0.88651">
        <ele>1497</ele>
        <time>2020-02-02T10:57:18Z</time>
      </trkpt>
      <trkpt lat="42.9571" lon="0.88665">
        <ele>1497</ele>
        <time>2020-02-02T10:57:29Z</time>
      </trkpt>
      <trkpt lat="42.95709" lon="0.88678">
        <ele>1498</ele>
        <time>2020-02-02T10:57:41Z</time>
      </trkpt>
      <trkpt lat="42.9571" lon="0.8869">
        <ele>1498</ele>
        <time>2020-02-02T10:57:51Z</time>
      </trkpt>
      <trkpt lat="42.95707" lon="0.88704">
        <ele>1499</ele>
        <time>2020-02-02T10:58:04Z</time>
      </trkpt>
      <trkpt lat="42.95711" lon="0.88716">
        <ele>1503</ele>
        <time>2020-02-02T10:58:21Z</time>
      </trkpt>
      <trkpt lat="42.95708" lon="0.88728">
        <ele>1502</ele>
        <time>2020-02-02T10:58:28Z</time>
      </trkpt>
      <trkpt lat="42.9571" lon="0.8874">
        <ele>1505</ele>
        <time>2020-02-02T10:58:44Z</time>
      </trkpt>
      <trkpt lat="42.95707" lon="0.88753">
        <ele>1504</ele>
        <time>2020-02-02T10:58:55Z</time>
      </trkpt>
      <trkpt lat="42.95703" lon="0.88765">
        <ele>1505</ele>
        <time>2020-02-02T10:59:07Z</time>
      </trkpt>
      <trkpt lat="42.95699" lon="0.88777">
        <ele>1503</ele>
        <time>2020-02-02T10:59:19Z</time>
      </trkpt>
      <trkpt lat="42.95692" lon="0.88786">
        <ele>1504</ele>
        <time>2020-02-02T10:59:29Z</time>
      </trkpt>
      <trkpt lat="42.95692" lon="0.88798">
        <ele>1503</ele>
        <time>2020-02-02T10:59:39Z</time>
      </trkpt>
      <trkpt lat="42.95688" lon="0.88811">
        <ele>1506</ele>
        <time>2020-02-02T10:59:56Z</time>
      </trkpt>
      <trkpt lat="42.95692" lon="0.88823">
        <ele>1510</ele>
        <time>2020-02-02T11:00:48Z</time>
      </trkpt>
      <trkpt lat="42.95698" lon="0.88836">
        <ele>1513</ele>
        <time>2020-02-02T11:01:04Z</time>
      </trkpt>
      <trkpt lat="42.95697" lon="0.88849">
        <ele>1515</ele>
        <time>2020-02-02T11:01:17Z</time>
      </trkpt>
      <trkpt lat="42.95708" lon="0.88844">
        <ele>1518</ele>
        <time>2020-02-02T11:02:22Z</time>
      </trkpt>
      <trkpt lat="42.95717" lon="0.88845">
        <ele>1518</ele>
        <time>2020-02-02T11:02:55Z</time>
      </trkpt>
      <trkpt lat="42.95728" lon="0.88848">
        <ele>1521</ele>
        <time>2020-02-02T11:03:27Z</time>
      </trkpt>
      <trkpt lat="42.95738" lon="0.88848">
        <ele>1526</ele>
        <time>2020-02-02T11:03:33Z</time>
      </trkpt>
      <trkpt lat="42.95744" lon="0.88857">
        <ele>1524</ele>
        <time>2020-02-02T11:03:47Z</time>
      </trkpt>
      <trkpt lat="42.95753" lon="0.88863">
        <ele>1532</ele>
        <time>2020-02-02T11:04:02Z</time>
      </trkpt>
      <trkpt lat="42.95748" lon="0.88875">
        <ele>1540</ele>
        <time>2020-02-02T11:04:25Z</time>
      </trkpt>
      <trkpt lat="42.95749" lon="0.88887">
        <ele>1546</ele>
        <time>2020-02-02T11:05:01Z</time>
      </trkpt>
      <trkpt lat="42.95754" lon="0.88899">
        <ele>1550</ele>
        <time>2020-02-02T11:05:21Z</time>
      </trkpt>
      <trkpt lat="42.95757" lon="0.88911">
        <ele>1549</ele>
        <time>2020-02-02T11:05:51Z</time>
      </trkpt>
      <trkpt lat="42.95758" lon="0.88923">
        <ele>1548</ele>
        <time>2020-02-02T11:06:00Z</time>
      </trkpt>
      <trkpt lat="42.95758" lon="0.88936">
        <ele>1546</ele>
        <time>2020-02-02T11:06:11Z</time>
      </trkpt>
      <trkpt lat="42.9576" lon="0.88948">
        <ele>1549</ele>
        <time>2020-02-02T11:06:25Z</time>
      </trkpt>
      <trkpt lat="42.95766" lon="0.88957">
        <ele>1554</ele>
        <time>2020-02-02T11:06:39Z</time>
      </trkpt>
      <trkpt lat="42.95771" lon="0.88969">
        <ele>1557</ele>
        <time>2020-02-02T11:06:53Z</time>
      </trkpt>
      <trkpt lat="42.95778" lon="0.88977">
        <ele>1558</ele>
        <time>2020-02-02T11:07:05Z</time>
      </trkpt>
      <trkpt lat="42.95786" lon="0.88983">
        <ele>1557</ele>
        <time>2020-02-02T11:07:14Z</time>
      </trkpt>
      <trkpt lat="42.95793" lon="0.88992">
        <ele>1557</ele>
        <time>2020-02-02T11:07:25Z</time>
      </trkpt>
      <trkpt lat="42.95796" lon="0.89004">
        <ele>1557</ele>
        <time>2020-02-02T11:07:39Z</time>
      </trkpt>
      <trkpt lat="42.95799" lon="0.89015">
        <ele>1565</ele>
        <time>2020-02-02T11:07:52Z</time>
      </trkpt>
      <trkpt lat="42.95805" lon="0.89026">
        <ele>1567</ele>
        <time>2020-02-02T11:08:04Z</time>
      </trkpt>
      <trkpt lat="42.95805" lon="0.89038">
        <ele>1569</ele>
        <time>2020-02-02T11:08:16Z</time>
      </trkpt>
      <trkpt lat="42.95803" lon="0.89051">
        <ele>1569</ele>
        <time>2020-02-02T11:08:27Z</time>
      </trkpt>
      <trkpt lat="42.95799" lon="0.89063">
        <ele>1567</ele>
        <time>2020-02-02T11:08:36Z</time>
      </trkpt>
      <trkpt lat="42.958" lon="0.89076">
        <ele>1569</ele>
        <time>2020-02-02T11:08:46Z</time>
      </trkpt>
      <trkpt lat="42.95797" lon="0.89089">
        <ele>1562</ele>
        <time>2020-02-02T11:10:49Z</time>
      </trkpt>
      <trkpt lat="42.95787" lon="0.89094">
        <ele>1565</ele>
        <time>2020-02-02T11:11:58Z</time>
      </trkpt>
      <trkpt lat="42.95781" lon="0.89084">
        <ele>1554</ele>
        <time>2020-02-02T13:32:46Z</time>
      </trkpt>
      <trkpt lat="42.95778" lon="0.89071">
        <ele>1556</ele>
        <time>2020-02-02T13:33:01Z</time>
      </trkpt>
      <trkpt lat="42.95779" lon="0.89059">
        <ele>1557</ele>
        <time>2020-02-02T13:33:13Z</time>
      </trkpt>
      <trkpt lat="42.95786" lon="0.8905">
        <ele>1561</ele>
        <time>2020-02-02T13:33:23Z</time>
      </trkpt>
      <trkpt lat="42.95787" lon="0.89037">
        <ele>1560</ele>
        <time>2020-02-02T13:33:47Z</time>
      </trkpt>
      <trkpt lat="42.95787" lon="0.89025">
        <ele>1562</ele>
        <time>2020-02-02T13:34:01Z</time>
      </trkpt>
      <trkpt lat="42.95796" lon="0.89018">
        <ele>1565</ele>
        <time>2020-02-02T13:34:09Z</time>
      </trkpt>
      <trkpt lat="42.95803" lon="0.8901">
        <ele>1565</ele>
        <time>2020-02-02T13:34:20Z</time>
      </trkpt>
      <trkpt lat="42.95811" lon="0.89003">
        <ele>1561</ele>
        <time>2020-02-02T13:34:28Z</time>
      </trkpt>
      <trkpt lat="42.95816" lon="0.88993">
        <ele>1557</ele>
        <time>2020-02-02T13:34:47Z</time>
      </trkpt>
      <trkpt lat="42.9582" lon="0.8898">
        <ele>1550</ele>
        <time>2020-02-02T13:34:58Z</time>
      </trkpt>
      <trkpt lat="42.95823" lon="0.88968">
        <ele>1550</ele>
        <time>2020-02-02T13:35:10Z</time>
      </trkpt>
      <trkpt lat="42.95823" lon="0.88954">
        <ele>1549</ele>
        <time>2020-02-02T13:35:19Z</time>
      </trkpt>
      <trkpt lat="42.95823" lon="0.88942">
        <ele>1550</ele>
        <time>2020-02-02T13:35:28Z</time>
      </trkpt>
      <trkpt lat="42.95827" lon="0.8893">
        <ele>1549</ele>
        <time>2020-02-02T13:35:38Z</time>
      </trkpt>
      <trkpt lat="42.95827" lon="0.88918">
        <ele>1554</ele>
        <time>2020-02-02T13:35:47Z</time>
      </trkpt>
      <trkpt lat="42.9583" lon="0.88905">
        <ele>1554</ele>
        <time>2020-02-02T13:35:55Z</time>
      </trkpt>
      <trkpt lat="42.95828" lon="0.88892">
        <ele>1552</ele>
        <time>2020-02-02T13:36:19Z</time>
      </trkpt>
      <trkpt lat="42.9583" lon="0.8888">
        <ele>1548</ele>
        <time>2020-02-02T13:36:28Z</time>
      </trkpt>
      <trkpt lat="42.95832" lon="0.88868">
        <ele>1543</ele>
        <time>2020-02-02T13:36:39Z</time>
      </trkpt>
      <trkpt lat="42.95834" lon="0.88855">
        <ele>1548</ele>
        <time>2020-02-02T13:36:47Z</time>
      </trkpt>
      <trkpt lat="42.95832" lon="0.88842">
        <ele>1545</ele>
        <time>2020-02-02T13:36:59Z</time>
      </trkpt>
      <trkpt lat="42.95837" lon="0.88832">
        <ele>1542</ele>
        <time>2020-02-02T13:37:11Z</time>
      </trkpt>
      <trkpt lat="42.95836" lon="0.88819">
        <ele>1541</ele>
        <time>2020-02-02T13:37:22Z</time>
      </trkpt>
      <trkpt lat="42.95836" lon="0.88806">
        <ele>1538</ele>
        <time>2020-02-02T13:37:33Z</time>
      </trkpt>
      <trkpt lat="42.95837" lon="0.88793">
        <ele>1537</ele>
        <time>2020-02-02T13:37:58Z</time>
      </trkpt>
      <trkpt lat="42.95838" lon="0.88779">
        <ele>1530</ele>
        <time>2020-02-02T13:38:10Z</time>
      </trkpt>
      <trkpt lat="42.95843" lon="0.88768">
        <ele>1523</ele>
        <time>2020-02-02T13:38:21Z</time>
      </trkpt>
      <trkpt lat="42.95848" lon="0.88757">
        <ele>1524</ele>
        <time>2020-02-02T13:38:31Z</time>
      </trkpt>
      <trkpt lat="42.95841" lon="0.88747">
        <ele>1522</ele>
        <time>2020-02-02T13:38:44Z</time>
      </trkpt>
      <trkpt lat="42.95835" lon="0.88738">
        <ele>1522</ele>
        <time>2020-02-02T13:38:58Z</time>
      </trkpt>
      <trkpt lat="42.95828" lon="0.88729">
        <ele>1520</ele>
        <time>2020-02-02T13:39:12Z</time>
      </trkpt>
      <trkpt lat="42.95821" lon="0.8872">
        <ele>1517</ele>
        <time>2020-02-02T13:39:22Z</time>
      </trkpt>
      <trkpt lat="42.95815" lon="0.88711">
        <ele>1513</ele>
        <time>2020-02-02T13:39:31Z</time>
      </trkpt>
      <trkpt lat="42.95807" lon="0.88704">
        <ele>1511</ele>
        <time>2020-02-02T13:39:45Z</time>
      </trkpt>
      <trkpt lat="42.958" lon="0.88694">
        <ele>1505</ele>
        <time>2020-02-02T13:39:57Z</time>
      </trkpt>
      <trkpt lat="42.95793" lon="0.88684">
        <ele>1503</ele>
        <time>2020-02-02T13:40:09Z</time>
      </trkpt>
      <trkpt lat="42.95789" lon="0.88672">
        <ele>1497</ele>
        <time>2020-02-02T13:40:19Z</time>
      </trkpt>
      <trkpt lat="42.9578" lon="0.88665">
        <ele>1496</ele>
        <time>2020-02-02T13:40:33Z</time>
      </trkpt>
      <trkpt lat="42.95774" lon="0.88655">
        <ele>1495</ele>
        <time>2020-02-02T13:40:44Z</time>
      </trkpt>
      <trkpt lat="42.95766" lon="0.88647">
        <ele>1493</ele>
        <time>2020-02-02T13:40:53Z</time>
      </trkpt>
      <trkpt lat="42.95765" lon="0.88634">
        <ele>1495</ele>
        <time>2020-02-02T13:41:03Z</time>
      </trkpt>
      <trkpt lat="42.95758" lon="0.88625">
        <ele>1492</ele>
        <time>2020-02-02T13:41:15Z</time>
      </trkpt>
      <trkpt lat="42.95752" lon="0.88616">
        <ele>1488</ele>
        <time>2020-02-02T13:41:25Z</time>
      </trkpt>
      <trkpt lat="42.95748" lon="0.88604">
        <ele>1487</ele>
        <time>2020-02-02T13:41:42Z</time>
      </trkpt>
      <trkpt lat="42.9574" lon="0.88599">
        <ele>1486</ele>
        <time>2020-02-02T13:41:50Z</time>
      </trkpt>
      <trkpt lat="42.95732" lon="0.88589">
        <ele>1484</ele>
        <time>2020-02-02T13:42:03Z</time>
      </trkpt>
      <trkpt lat="42.95731" lon="0.88576">
        <ele>1479</ele>
        <time>2020-02-02T13:42:19Z</time>
      </trkpt>
      <trkpt lat="42.95727" lon="0.88565">
        <ele>1468</ele>
        <time>2020-02-02T13:43:30Z</time>
      </trkpt>
      <trkpt lat="42.95724" lon="0.88553">
        <ele>1470</ele>
        <time>2020-02-02T13:43:54Z</time>
      </trkpt>
      <trkpt lat="42.95722" lon="0.88539">
        <ele>1477</ele>
        <time>2020-02-02T13:44:09Z</time>
      </trkpt>
      <trkpt lat="42.9572" lon="0.88526">
        <ele>1481</ele>
        <time>2020-02-02T13:44:20Z</time>
      </trkpt>
      <trkpt lat="42.9572" lon="0.88514">
        <ele>1482</ele>
        <time>2020-02-02T13:44:29Z</time>
      </trkpt>
      <trkpt lat="42.9572" lon="0.885">
        <ele>1484</ele>
        <time>2020-02-02T13:44:38Z</time>
      </trkpt>
      <trkpt lat="42.95718" lon="0.88488">
        <ele>1484</ele>
        <time>2020-02-02T13:44:47Z</time>
      </trkpt>
      <trkpt lat="42.95722" lon="0.88475">
        <ele>1482</ele>
        <time>2020-02-02T13:44:56Z</time>
      </trkpt>
      <trkpt lat="42.95721" lon="0.88463">
        <ele>1481</ele>
        <time>2020-02-02T13:45:05Z</time>
      </trkpt>
      <trkpt lat="42.95721" lon="0.8845">
        <ele>1479</ele>
        <time>2020-02-02T13:45:20Z</time>
      </trkpt>
      <trkpt lat="42.95718" lon="0.88437">
        <ele>1488</ele>
        <time>2020-02-02T13:45:32Z</time>
      </trkpt>
      <trkpt lat="42.95716" lon="0.88425">
        <ele>1488</ele>
        <time>2020-02-02T13:45:54Z</time>
      </trkpt>
      <trkpt lat="42.95715" lon="0.88411">
        <ele>1489</ele>
        <time>2020-02-02T13:46:03Z</time>
      </trkpt>
      <trkpt lat="42.95711" lon="0.884">
        <ele>1487</ele>
        <time>2020-02-02T13:46:17Z</time>
      </trkpt>
      <trkpt lat="42.9572" lon="0.88391">
        <ele>1483</ele>
        <time>2020-02-02T13:47:29Z</time>
      </trkpt>
      <trkpt lat="42.95712" lon="0.88385">
        <ele>1482</ele>
        <time>2020-02-02T13:48:25Z</time>
      </trkpt>
      <trkpt lat="42.95717" lon="0.88396">
        <ele>1496</ele>
        <time>2020-02-02T13:49:26Z</time>
      </trkpt>
      <trkpt lat="42.95712" lon="0.88406">
        <ele>1490</ele>
        <time>2020-02-02T13:50:53Z</time>
      </trkpt>
      <trkpt lat="42.95711" lon="0.88419">
        <ele>1480</ele>
        <time>2020-02-02T13:51:12Z</time>
      </trkpt>
      <trkpt lat="42.95711" lon="0.88432">
        <ele>1477</ele>
        <time>2020-02-02T13:51:27Z</time>
      </trkpt>
      <trkpt lat="42.95714" lon="0.88444">
        <ele>1480</ele>
        <time>2020-02-02T13:51:41Z</time>
      </trkpt>
      <trkpt lat="42.95715" lon="0.88457">
        <ele>1478</ele>
        <time>2020-02-02T13:51:53Z</time>
      </trkpt>
      <trkpt lat="42.95713" lon="0.88443">
        <ele>1484</ele>
        <time>2020-02-02T13:52:21Z</time>
      </trkpt>
      <trkpt lat="42.95714" lon="0.88431">
        <ele>1485</ele>
        <time>2020-02-02T13:52:33Z</time>
      </trkpt>
      <trkpt lat="42.95714" lon="0.88418">
        <ele>1489</ele>
        <time>2020-02-02T13:52:44Z</time>
      </trkpt>
      <trkpt lat="42.95715" lon="0.88406">
        <ele>1492</ele>
        <time>2020-02-02T13:53:14Z</time>
      </trkpt>
      <trkpt lat="42.95713" lon="0.88418">
        <ele>1482</ele>
        <time>2020-02-02T13:54:19Z</time>
      </trkpt>
      <trkpt lat="42.95714" lon="0.88431">
        <ele>1481</ele>
        <time>2020-02-02T13:54:28Z</time>
      </trkpt>
      <trkpt lat="42.95715" lon="0.88445">
        <ele>1480</ele>
        <time>2020-02-02T13:54:39Z</time>
      </trkpt>
      <trkpt lat="42.95715" lon="0.88458">
        <ele>1481</ele>
        <time>2020-02-02T13:54:47Z</time>
      </trkpt>
      <trkpt lat="42.95715" lon="0.88471">
        <ele>1481</ele>
        <time>2020-02-02T13:54:57Z</time>
      </trkpt>
      <trkpt lat="42.95715" lon="0.88484">
        <ele>1481</ele>
        <time>2020-02-02T13:55:09Z</time>
      </trkpt>
      <trkpt lat="42.95716" lon="0.88496">
        <ele>1483</ele>
        <time>2020-02-02T13:55:17Z</time>
      </trkpt>
      <trkpt lat="42.95716" lon="0.8851">
        <ele>1485</ele>
        <time>2020-02-02T13:55:28Z</time>
      </trkpt>
      <trkpt lat="42.95719" lon="0.88523">
        <ele>1485</ele>
        <time>2020-02-02T13:55:37Z</time>
      </trkpt>
      <trkpt lat="42.9572" lon="0.88537">
        <ele>1481</ele>
        <time>2020-02-02T13:55:48Z</time>
      </trkpt>
      <trkpt lat="42.95712" lon="0.88546">
        <ele>1477</ele>
        <time>2020-02-02T13:56:01Z</time>
      </trkpt>
      <trkpt lat="42.9571" lon="0.88559">
        <ele>1473</ele>
        <time>2020-02-02T13:56:11Z</time>
      </trkpt>
      <trkpt lat="42.95712" lon="0.88572">
        <ele>1472</ele>
        <time>2020-02-02T13:56:20Z</time>
      </trkpt>
      <trkpt lat="42.95712" lon="0.88586">
        <ele>1471</ele>
        <time>2020-02-02T13:56:30Z</time>
      </trkpt>
      <trkpt lat="42.95707" lon="0.88598">
        <ele>1472</ele>
        <time>2020-02-02T13:56:40Z</time>
      </trkpt>
      <trkpt lat="42.95707" lon="0.88613">
        <ele>1467</ele>
        <time>2020-02-02T13:56:50Z</time>
      </trkpt>
      <trkpt lat="42.95703" lon="0.88624">
        <ele>1472</ele>
        <time>2020-02-02T13:57:02Z</time>
      </trkpt>
      <trkpt lat="42.95695" lon="0.8863">
        <ele>1468</ele>
        <time>2020-02-02T13:57:11Z</time>
      </trkpt>
      <trkpt lat="42.95695" lon="0.88644">
        <ele>1467</ele>
        <time>2020-02-02T13:57:19Z</time>
      </trkpt>
      <trkpt lat="42.95688" lon="0.88652">
        <ele>1470</ele>
        <time>2020-02-02T13:57:28Z</time>
      </trkpt>
      <trkpt lat="42.95685" lon="0.88665">
        <ele>1469</ele>
        <time>2020-02-02T13:57:35Z</time>
      </trkpt>
      <trkpt lat="42.95679" lon="0.88676">
        <ele>1466</ele>
        <time>2020-02-02T13:57:44Z</time>
      </trkpt>
      <trkpt lat="42.95673" lon="0.88685">
        <ele>1467</ele>
        <time>2020-02-02T13:57:55Z</time>
      </trkpt>
      <trkpt lat="42.95667" lon="0.88695">
        <ele>1464</ele>
        <time>2020-02-02T13:58:04Z</time>
      </trkpt>
      <trkpt lat="42.95667" lon="0.88708">
        <ele>1463</ele>
        <time>2020-02-02T13:58:15Z</time>
      </trkpt>
      <trkpt lat="42.95659" lon="0.88715">
        <ele>1463</ele>
        <time>2020-02-02T13:58:23Z</time>
      </trkpt>
      <trkpt lat="42.95654" lon="0.88726">
        <ele>1464</ele>
        <time>2020-02-02T13:58:32Z</time>
      </trkpt>
      <trkpt lat="42.9565" lon="0.88738">
        <ele>1464</ele>
        <time>2020-02-02T13:58:46Z</time>
      </trkpt>
      <trkpt lat="42.95646" lon="0.88749">
        <ele>1459</ele>
        <time>2020-02-02T13:58:52Z</time>
      </trkpt>
      <trkpt lat="42.95637" lon="0.88754">
        <ele>1458</ele>
        <time>2020-02-02T13:58:58Z</time>
      </trkpt>
      <trkpt lat="42.95631" lon="0.88765">
        <ele>1450</ele>
        <time>2020-02-02T13:59:07Z</time>
      </trkpt>
      <trkpt lat="42.9562" lon="0.88775">
        <ele>1446</ele>
        <time>2020-02-02T13:59:15Z</time>
      </trkpt>
      <trkpt lat="42.95612" lon="0.88781">
        <ele>1443</ele>
        <time>2020-02-02T13:59:24Z</time>
      </trkpt>
      <trkpt lat="42.95609" lon="0.88795">
        <ele>1437</ele>
        <time>2020-02-02T13:59:33Z</time>
      </trkpt>
      <trkpt lat="42.9561" lon="0.8881">
        <ele>1436</ele>
        <time>2020-02-02T13:59:40Z</time>
      </trkpt>
      <trkpt lat="42.95609" lon="0.88822">
        <ele>1441</ele>
        <time>2020-02-02T13:59:50Z</time>
      </trkpt>
      <trkpt lat="42.95605" lon="0.88834">
        <ele>1442</ele>
        <time>2020-02-02T14:00:00Z</time>
      </trkpt>
      <trkpt lat="42.95601" lon="0.88845">
        <ele>1439</ele>
        <time>2020-02-02T14:00:10Z</time>
      </trkpt>
      <trkpt lat="42.95598" lon="0.88857">
        <ele>1437</ele>
        <time>2020-02-02T14:00:20Z</time>
      </trkpt>
      <trkpt lat="42.95597" lon="0.88871">
        <ele>1437</ele>
        <time>2020-02-02T14:00:29Z</time>
      </trkpt>
      <trkpt lat="42.95591" lon="0.88882">
        <ele>1433</ele>
        <time>2020-02-02T14:00:42Z</time>
      </trkpt>
      <trkpt lat="42.95586" lon="0.88894">
        <ele>1429</ele>
        <time>2020-02-02T14:00:50Z</time>
      </trkpt>
      <trkpt lat="42.9558" lon="0.88905">
        <ele>1428</ele>
        <time>2020-02-02T14:00:57Z</time>
      </trkpt>
      <trkpt lat="42.95579" lon="0.88918">
        <ele>1427</ele>
        <time>2020-02-02T14:01:30Z</time>
      </trkpt>
      <trkpt lat="42.9558" lon="0.88938">
        <ele>1433</ele>
        <time>2020-02-02T14:02:44Z</time>
      </trkpt>
      <trkpt lat="42.95576" lon="0.8895">
        <ele>1433</ele>
        <time>2020-02-02T14:02:58Z</time>
      </trkpt>
      <trkpt lat="42.9557" lon="0.88961">
        <ele>1435</ele>
        <time>2020-02-02T14:03:06Z</time>
      </trkpt>
      <trkpt lat="42.95565" lon="0.88972">
        <ele>1435</ele>
        <time>2020-02-02T14:03:16Z</time>
      </trkpt>
      <trkpt lat="42.95558" lon="0.88981">
        <ele>1432</ele>
        <time>2020-02-02T14:03:26Z</time>
      </trkpt>
      <trkpt lat="42.95553" lon="0.88992">
        <ele>1428</ele>
        <time>2020-02-02T14:03:32Z</time>
      </trkpt>
      <trkpt lat="42.95544" lon="0.89">
        <ele>1417</ele>
        <time>2020-02-02T14:03:41Z</time>
      </trkpt>
      <trkpt lat="42.95537" lon="0.89008">
        <ele>1414</ele>
        <time>2020-02-02T14:03:51Z</time>
      </trkpt>
      <trkpt lat="42.95533" lon="0.89019">
        <ele>1414</ele>
        <time>2020-02-02T14:03:58Z</time>
      </trkpt>
      <trkpt lat="42.95527" lon="0.89031">
        <ele>1416</ele>
        <time>2020-02-02T14:04:04Z</time>
      </trkpt>
      <trkpt lat="42.95521" lon="0.8904">
        <ele>1417</ele>
        <time>2020-02-02T14:04:10Z</time>
      </trkpt>
      <trkpt lat="42.95517" lon="0.89053">
        <ele>1416</ele>
        <time>2020-02-02T14:04:18Z</time>
      </trkpt>
      <trkpt lat="42.95514" lon="0.89065">
        <ele>1412</ele>
        <time>2020-02-02T14:04:26Z</time>
      </trkpt>
      <trkpt lat="42.95511" lon="0.89079">
        <ele>1408</ele>
        <time>2020-02-02T14:04:32Z</time>
      </trkpt>
      <trkpt lat="42.95506" lon="0.89091">
        <ele>1407</ele>
        <time>2020-02-02T14:04:41Z</time>
      </trkpt>
      <trkpt lat="42.95502" lon="0.89102">
        <ele>1407</ele>
        <time>2020-02-02T14:04:49Z</time>
      </trkpt>
      <trkpt lat="42.95497" lon="0.89114">
        <ele>1405</ele>
        <time>2020-02-02T14:05:00Z</time>
      </trkpt>
      <trkpt lat="42.95495" lon="0.89128">
        <ele>1400</ele>
        <time>2020-02-02T14:05:08Z</time>
      </trkpt>
      <trkpt lat="42.95487" lon="0.89119">
        <ele>1397</ele>
        <time>2020-02-02T14:05:37Z</time>
      </trkpt>
      <trkpt lat="42.95479" lon="0.8911">
        <ele>1396</ele>
        <time>2020-02-02T14:05:45Z</time>
      </trkpt>
      <trkpt lat="42.95472" lon="0.89102">
        <ele>1393</ele>
        <time>2020-02-02T14:05:52Z</time>
      </trkpt>
      <trkpt lat="42.95463" lon="0.89097">
        <ele>1393</ele>
        <time>2020-02-02T14:05:59Z</time>
      </trkpt>
      <trkpt lat="42.95454" lon="0.89088">
        <ele>1390</ele>
        <time>2020-02-02T14:06:07Z</time>
      </trkpt>
      <trkpt lat="42.95444" lon="0.89086">
        <ele>1379</ele>
        <time>2020-02-02T14:07:25Z</time>
      </trkpt>
      <trkpt lat="42.95442" lon="0.89072">
        <ele>1370</ele>
        <time>2020-02-02T14:09:01Z</time>
      </trkpt>
      <trkpt lat="42.9544" lon="0.8906">
        <ele>1368</ele>
        <time>2020-02-02T14:09:07Z</time>
      </trkpt>
      <trkpt lat="42.95438" lon="0.89048">
        <ele>1366</ele>
        <time>2020-02-02T14:09:12Z</time>
      </trkpt>
      <trkpt lat="42.95435" lon="0.89034">
        <ele>1370</ele>
        <time>2020-02-02T14:09:23Z</time>
      </trkpt>
      <trkpt lat="42.95426" lon="0.89038">
        <ele>1367</ele>
        <time>2020-02-02T14:09:33Z</time>
      </trkpt>
      <trkpt lat="42.9542" lon="0.89048">
        <ele>1367</ele>
        <time>2020-02-02T14:09:42Z</time>
      </trkpt>
      <trkpt lat="42.95413" lon="0.89055">
        <ele>1368</ele>
        <time>2020-02-02T14:09:51Z</time>
      </trkpt>
      <trkpt lat="42.95411" lon="0.89068">
        <ele>1372</ele>
        <time>2020-02-02T14:09:59Z</time>
      </trkpt>
      <trkpt lat="42.95406" lon="0.89082">
        <ele>1370</ele>
        <time>2020-02-02T14:10:06Z</time>
      </trkpt>
      <trkpt lat="42.95397" lon="0.89083">
        <ele>1359</ele>
        <time>2020-02-02T14:10:23Z</time>
      </trkpt>
      <trkpt lat="42.95396" lon="0.8907">
        <ele>1355</ele>
        <time>2020-02-02T14:10:31Z</time>
      </trkpt>
      <trkpt lat="42.95387" lon="0.89067">
        <ele>1353</ele>
        <time>2020-02-02T14:10:44Z</time>
      </trkpt>
      <trkpt lat="42.95377" lon="0.89068">
        <ele>1353</ele>
        <time>2020-02-02T14:10:52Z</time>
      </trkpt>
      <trkpt lat="42.95366" lon="0.89073">
        <ele>1352</ele>
        <time>2020-02-02T14:11:00Z</time>
      </trkpt>
      <trkpt lat="42.95358" lon="0.89082">
        <ele>1347</ele>
        <time>2020-02-02T14:11:08Z</time>
      </trkpt>
      <trkpt lat="42.9535" lon="0.89087">
        <ele>1340</ele>
        <time>2020-02-02T14:11:17Z</time>
      </trkpt>
      <trkpt lat="42.95343" lon="0.89096">
        <ele>1341</ele>
        <time>2020-02-02T14:11:25Z</time>
      </trkpt>
      <trkpt lat="42.95335" lon="0.89103">
        <ele>1334</ele>
        <time>2020-02-02T14:11:36Z</time>
      </trkpt>
      <trkpt lat="42.95329" lon="0.89112">
        <ele>1329</ele>
        <time>2020-02-02T14:14:53Z</time>
      </trkpt>
      <trkpt lat="42.95326" lon="0.89125">
        <ele>1326</ele>
        <time>2020-02-02T14:15:02Z</time>
      </trkpt>
      <trkpt lat="42.9532" lon="0.89115">
        <ele>1324</ele>
        <time>2020-02-02T14:15:21Z</time>
      </trkpt>
      <trkpt lat="42.95308" lon="0.89115">
        <ele>1319</ele>
        <time>2020-02-02T14:15:27Z</time>
      </trkpt>
      <trkpt lat="42.95304" lon="0.89129">
        <ele>1322</ele>
        <time>2020-02-02T14:15:36Z</time>
      </trkpt>
      <trkpt lat="42.95296" lon="0.89135">
        <ele>1321</ele>
        <time>2020-02-02T14:15:42Z</time>
      </trkpt>
      <trkpt lat="42.95295" lon="0.89149">
        <ele>1319</ele>
        <time>2020-02-02T14:15:51Z</time>
      </trkpt>
      <trkpt lat="42.95294" lon="0.89163">
        <ele>1313</ele>
        <time>2020-02-02T14:16:01Z</time>
      </trkpt>
      <trkpt lat="42.95294" lon="0.89175">
        <ele>1305</ele>
        <time>2020-02-02T14:16:10Z</time>
      </trkpt>
      <trkpt lat="42.95293" lon="0.89189">
        <ele>1303</ele>
        <time>2020-02-02T14:16:18Z</time>
      </trkpt>
      <trkpt lat="42.95291" lon="0.89203">
        <ele>1296</ele>
        <time>2020-02-02T14:16:27Z</time>
      </trkpt>
      <trkpt lat="42.95288" lon="0.89216">
        <ele>1297</ele>
        <time>2020-02-02T14:16:34Z</time>
      </trkpt>
      <trkpt lat="42.95285" lon="0.89229">
        <ele>1297</ele>
        <time>2020-02-02T14:16:42Z</time>
      </trkpt>
      <trkpt lat="42.95289" lon="0.89241">
        <ele>1292</ele>
        <time>2020-02-02T14:16:49Z</time>
      </trkpt>
      <trkpt lat="42.95291" lon="0.89253">
        <ele>1290</ele>
        <time>2020-02-02T14:16:54Z</time>
      </trkpt>
      <trkpt lat="42.95289" lon="0.89266">
        <ele>1291</ele>
        <time>2020-02-02T14:21:48Z</time>
      </trkpt>
      <trkpt lat="42.95296" lon="0.89275">
        <ele>1290</ele>
        <time>2020-02-02T14:22:05Z</time>
      </trkpt>
      <trkpt lat="42.95302" lon="0.89284">
        <ele>1289</ele>
        <time>2020-02-02T14:22:22Z</time>
      </trkpt>
      <trkpt lat="42.95304" lon="0.89297">
        <ele>1287</ele>
        <time>2020-02-02T14:22:40Z</time>
      </trkpt>
      <trkpt lat="42.95299" lon="0.8931">
        <ele>1282</ele>
        <time>2020-02-02T14:22:56Z</time>
      </trkpt>
      <trkpt lat="42.95297" lon="0.89322">
        <ele>1282</ele>
        <time>2020-02-02T14:23:06Z</time>
      </trkpt>
      <trkpt lat="42.95298" lon="0.89334">
        <ele>1283</ele>
        <time>2020-02-02T14:23:25Z</time>
      </trkpt>
      <trkpt lat="42.95298" lon="0.89346">
        <ele>1284</ele>
        <time>2020-02-02T14:23:30Z</time>
      </trkpt>
      <trkpt lat="42.95298" lon="0.8936">
        <ele>1280</ele>
        <time>2020-02-02T14:23:38Z</time>
      </trkpt>
      <trkpt lat="42.95299" lon="0.89372">
        <ele>1275</ele>
        <time>2020-02-02T14:23:48Z</time>
      </trkpt>
      <trkpt lat="42.95294" lon="0.89383">
        <ele>1271</ele>
        <time>2020-02-02T14:24:05Z</time>
      </trkpt>
      <trkpt lat="42.9529" lon="0.89394">
        <ele>1269</ele>
        <time>2020-02-02T14:24:14Z</time>
      </trkpt>
      <trkpt lat="42.95293" lon="0.89406">
        <ele>1263</ele>
        <time>2020-02-02T14:24:23Z</time>
      </trkpt>
      <trkpt lat="42.95291" lon="0.89418">
        <ele>1267</ele>
        <time>2020-02-02T14:24:30Z</time>
      </trkpt>
      <trkpt lat="42.95288" lon="0.89431">
        <ele>1258</ele>
        <time>2020-02-02T14:24:46Z</time>
      </trkpt>
      <trkpt lat="42.95287" lon="0.89445">
        <ele>1255</ele>
        <time>2020-02-02T14:24:58Z</time>
      </trkpt>
      <trkpt lat="42.95288" lon="0.89458">
        <ele>1244</ele>
        <time>2020-02-02T14:25:11Z</time>
      </trkpt>
      <trkpt lat="42.95292" lon="0.89471">
        <ele>1242</ele>
        <time>2020-02-02T14:25:18Z</time>
      </trkpt>
      <trkpt lat="42.95291" lon="0.89484">
        <ele>1242</ele>
        <time>2020-02-02T14:25:30Z</time>
      </trkpt>
      <trkpt lat="42.95288" lon="0.89497">
        <ele>1240</ele>
        <time>2020-02-02T14:25:39Z</time>
      </trkpt>
      <trkpt lat="42.95285" lon="0.8951">
        <ele>1242</ele>
        <time>2020-02-02T14:25:47Z</time>
      </trkpt>
      <trkpt lat="42.95286" lon="0.89524">
        <ele>1242</ele>
        <time>2020-02-02T14:25:56Z</time>
      </trkpt>
      <trkpt lat="42.95286" lon="0.89537">
        <ele>1241</ele>
        <time>2020-02-02T14:26:04Z</time>
      </trkpt>
      <trkpt lat="42.95291" lon="0.89548">
        <ele>1236</ele>
        <time>2020-02-02T14:26:12Z</time>
      </trkpt>
      <trkpt lat="42.95294" lon="0.89559">
        <ele>1234</ele>
        <time>2020-02-02T14:26:21Z</time>
      </trkpt>
      <trkpt lat="42.9529" lon="0.89571">
        <ele>1234</ele>
        <time>2020-02-02T14:26:33Z</time>
      </trkpt>
      <trkpt lat="42.95293" lon="0.89583">
        <ele>1226</ele>
        <time>2020-02-02T14:26:50Z</time>
      </trkpt>
      <trkpt lat="42.95293" lon="0.89597">
        <ele>1223</ele>
        <time>2020-02-02T14:26:56Z</time>
      </trkpt>
      <trkpt lat="42.95291" lon="0.89611">
        <ele>1218</ele>
        <time>2020-02-02T14:27:05Z</time>
      </trkpt>
      <trkpt lat="42.95295" lon="0.89626">
        <ele>1214</ele>
        <time>2020-02-02T14:27:13Z</time>
      </trkpt>
      <trkpt lat="42.95297" lon="0.8964">
        <ele>1216</ele>
        <time>2020-02-02T14:27:20Z</time>
      </trkpt>
      <trkpt lat="42.95298" lon="0.89652">
        <ele>1219</ele>
        <time>2020-02-02T14:27:29Z</time>
      </trkpt>
      <trkpt lat="42.95299" lon="0.89665">
        <ele>1220</ele>
        <time>2020-02-02T14:27:37Z</time>
      </trkpt>
      <trkpt lat="42.95298" lon="0.89678">
        <ele>1219</ele>
        <time>2020-02-02T14:27:46Z</time>
      </trkpt>
      <trkpt lat="42.95291" lon="0.89689">
        <ele>1222</ele>
        <time>2020-02-02T14:28:00Z</time>
      </trkpt>
      <trkpt lat="42.95285" lon="0.89699">
        <ele>1222</ele>
        <time>2020-02-02T14:28:06Z</time>
      </trkpt>
      <trkpt lat="42.95282" lon="0.89711">
        <ele>1220</ele>
        <time>2020-02-02T14:28:16Z</time>
      </trkpt>
      <trkpt lat="42.95281" lon="0.89723">
        <ele>1216</ele>
        <time>2020-02-02T14:28:24Z</time>
      </trkpt>
      <trkpt lat="42.95277" lon="0.89735">
        <ele>1217</ele>
        <time>2020-02-02T14:28:30Z</time>
      </trkpt>
      <trkpt lat="42.95273" lon="0.89746">
        <ele>1217</ele>
        <time>2020-02-02T14:28:38Z</time>
      </trkpt>
      <trkpt lat="42.95271" lon="0.89759">
        <ele>1218</ele>
        <time>2020-02-02T14:28:45Z</time>
      </trkpt>
      <trkpt lat="42.95272" lon="0.89771">
        <ele>1214</ele>
        <time>2020-02-02T14:28:52Z</time>
      </trkpt>
      <trkpt lat="42.95273" lon="0.89784">
        <ele>1213</ele>
        <time>2020-02-02T14:29:01Z</time>
      </trkpt>
      <trkpt lat="42.95273" lon="0.89798">
        <ele>1216</ele>
        <time>2020-02-02T14:29:09Z</time>
      </trkpt>
      <trkpt lat="42.95273" lon="0.89813">
        <ele>1217</ele>
        <time>2020-02-02T14:29:15Z</time>
      </trkpt>
      <trkpt lat="42.95273" lon="0.89825">
        <ele>1215</ele>
        <time>2020-02-02T14:29:24Z</time>
      </trkpt>
      <trkpt lat="42.95278" lon="0.89836">
        <ele>1209</ele>
        <time>2020-02-02T14:29:34Z</time>
      </trkpt>
      <trkpt lat="42.95278" lon="0.89852">
        <ele>1207</ele>
        <time>2020-02-02T14:29:46Z</time>
      </trkpt>
      <trkpt lat="42.95276" lon="0.89865">
        <ele>1210</ele>
        <time>2020-02-02T14:29:53Z</time>
      </trkpt>
      <trkpt lat="42.95278" lon="0.89878">
        <ele>1205</ele>
        <time>2020-02-02T14:30:00Z</time>
      </trkpt>
      <trkpt lat="42.95281" lon="0.89892">
        <ele>1199</ele>
        <time>2020-02-02T14:30:07Z</time>
      </trkpt>
      <trkpt lat="42.95288" lon="0.89901">
        <ele>1196</ele>
        <time>2020-02-02T14:30:14Z</time>
      </trkpt>
      <trkpt lat="42.95292" lon="0.89912">
        <ele>1191</ele>
        <time>2020-02-02T14:30:24Z</time>
      </trkpt>
      <trkpt lat="42.95296" lon="0.89923">
        <ele>1189</ele>
        <time>2020-02-02T14:30:48Z</time>
      </trkpt>
      <trkpt lat="42.95302" lon="0.89933">
        <ele>1188</ele>
        <time>2020-02-02T14:30:56Z</time>
      </trkpt>
      <trkpt lat="42.95305" lon="0.89946">
        <ele>1186</ele>
        <time>2020-02-02T14:31:06Z</time>
      </trkpt>
      <trkpt lat="42.95309" lon="0.89959">
        <ele>1186</ele>
        <time>2020-02-02T14:31:16Z</time>
      </trkpt>
      <trkpt lat="42.95314" lon="0.89971">
        <ele>1186</ele>
        <time>2020-02-02T14:31:24Z</time>
      </trkpt>
      <trkpt lat="42.95312" lon="0.89983">
        <ele>1187</ele>
        <time>2020-02-02T14:31:33Z</time>
      </trkpt>
      <trkpt lat="42.95315" lon="0.89995">
        <ele>1183</ele>
        <time>2020-02-02T14:31:47Z</time>
      </trkpt>
      <trkpt lat="42.95316" lon="0.90009">
        <ele>1184</ele>
        <time>2020-02-02T14:31:57Z</time>
      </trkpt>
      <trkpt lat="42.95319" lon="0.90022">
        <ele>1182</ele>
        <time>2020-02-02T14:32:05Z</time>
      </trkpt>
      <trkpt lat="42.95323" lon="0.90036">
        <ele>1178</ele>
        <time>2020-02-02T14:32:13Z</time>
      </trkpt>
      <trkpt lat="42.95326" lon="0.90049">
        <ele>1178</ele>
        <time>2020-02-02T14:32:22Z</time>
      </trkpt>
      <trkpt lat="42.95321" lon="0.9006">
        <ele>1177</ele>
        <time>2020-02-02T14:32:37Z</time>
      </trkpt>
      <trkpt lat="42.95314" lon="0.9007">
        <ele>1180</ele>
        <time>2020-02-02T14:32:48Z</time>
      </trkpt>
      <trkpt lat="42.95308" lon="0.90083">
        <ele>1182</ele>
        <time>2020-02-02T14:33:35Z</time>
      </trkpt>
      <trkpt lat="42.95306" lon="0.90096">
        <ele>1181</ele>
        <time>2020-02-02T14:33:43Z</time>
      </trkpt>
      <trkpt lat="42.95306" lon="0.90109">
        <ele>1181</ele>
        <time>2020-02-02T14:33:51Z</time>
      </trkpt>
      <trkpt lat="42.95305" lon="0.90123">
        <ele>1182</ele>
        <time>2020-02-02T14:33:59Z</time>
      </trkpt>
      <trkpt lat="42.95304" lon="0.90136">
        <ele>1179</ele>
        <time>2020-02-02T14:34:07Z</time>
      </trkpt>
      <trkpt lat="42.95302" lon="0.90148">
        <ele>1178</ele>
        <time>2020-02-02T14:34:14Z</time>
      </trkpt>
      <trkpt lat="42.95309" lon="0.90159">
        <ele>1172</ele>
        <time>2020-02-02T14:34:27Z</time>
      </trkpt>
      <trkpt lat="42.9531" lon="0.90172">
        <ele>1171</ele>
        <time>2020-02-02T14:34:32Z</time>
      </trkpt>
      <trkpt lat="42.95315" lon="0.90183">
        <ele>1168</ele>
        <time>2020-02-02T14:34:38Z</time>
      </trkpt>
      <trkpt lat="42.95318" lon="0.90195">
        <ele>1170</ele>
        <time>2020-02-02T14:34:43Z</time>
      </trkpt>
      <trkpt lat="42.95322" lon="0.90207">
        <ele>1169</ele>
        <time>2020-02-02T14:34:52Z</time>
      </trkpt>
      <trkpt lat="42.95328" lon="0.90217">
        <ele>1170</ele>
        <time>2020-02-02T14:34:59Z</time>
      </trkpt>
      <trkpt lat="42.95333" lon="0.90228">
        <ele>1165</ele>
        <time>2020-02-02T14:35:07Z</time>
      </trkpt>
      <trkpt lat="42.95333" lon="0.90241">
        <ele>1164</ele>
        <time>2020-02-02T14:35:13Z</time>
      </trkpt>
      <trkpt lat="42.95338" lon="0.90252">
        <ele>1164</ele>
        <time>2020-02-02T14:35:18Z</time>
      </trkpt>
      <trkpt lat="42.95339" lon="0.90266">
        <ele>1167</ele>
        <time>2020-02-02T14:35:26Z</time>
      </trkpt>
      <trkpt lat="42.9534" lon="0.9028">
        <ele>1163</ele>
        <time>2020-02-02T14:35:34Z</time>
      </trkpt>
      <trkpt lat="42.95338" lon="0.90292">
        <ele>1165</ele>
        <time>2020-02-02T14:35:41Z</time>
      </trkpt>
      <trkpt lat="42.95339" lon="0.90305">
        <ele>1164</ele>
        <time>2020-02-02T14:35:47Z</time>
      </trkpt>
      <trkpt lat="42.95337" lon="0.90318">
        <ele>1160</ele>
        <time>2020-02-02T14:35:54Z</time>
      </trkpt>
      <trkpt lat="42.95337" lon="0.90331">
        <ele>1157</ele>
        <time>2020-02-02T14:36:02Z</time>
      </trkpt>
      <trkpt lat="42.95334" lon="0.90345">
        <ele>1159</ele>
        <time>2020-02-02T14:36:09Z</time>
      </trkpt>
      <trkpt lat="42.95331" lon="0.90358">
        <ele>1159</ele>
        <time>2020-02-02T14:36:17Z</time>
      </trkpt>
      <trkpt lat="42.95329" lon="0.90372">
        <ele>1156</ele>
        <time>2020-02-02T14:36:29Z</time>
      </trkpt>
      <trkpt lat="42.95327" lon="0.90385">
        <ele>1155</ele>
        <time>2020-02-02T14:36:34Z</time>
      </trkpt>
      <trkpt lat="42.95325" lon="0.90398">
        <ele>1157</ele>
        <time>2020-02-02T14:36:41Z</time>
      </trkpt>
      <trkpt lat="42.95322" lon="0.9041">
        <ele>1158</ele>
        <time>2020-02-02T14:36:48Z</time>
      </trkpt>
      <trkpt lat="42.95318" lon="0.90422">
        <ele>1157</ele>
        <time>2020-02-02T14:36:57Z</time>
      </trkpt>
      <trkpt lat="42.95313" lon="0.90434">
        <ele>1157</ele>
        <time>2020-02-02T14:37:04Z</time>
      </trkpt>
      <trkpt lat="42.95312" lon="0.90447">
        <ele>1155</ele>
        <time>2020-02-02T14:38:15Z</time>
      </trkpt>
      <trkpt lat="42.95306" lon="0.90457">
        <ele>1151</ele>
        <time>2020-02-02T14:38:20Z</time>
      </trkpt>
      <trkpt lat="42.95299" lon="0.90467">
        <ele>1149</ele>
        <time>2020-02-02T14:38:26Z</time>
      </trkpt>
      <trkpt lat="42.95295" lon="0.90478">
        <ele>1148</ele>
        <time>2020-02-02T14:38:34Z</time>
      </trkpt>
      <trkpt lat="42.95288" lon="0.90488">
        <ele>1148</ele>
        <time>2020-02-02T14:38:41Z</time>
      </trkpt>
      <trkpt lat="42.95284" lon="0.90499">
        <ele>1143</ele>
        <time>2020-02-02T14:38:50Z</time>
      </trkpt>
      <trkpt lat="42.95277" lon="0.90507">
        <ele>1145</ele>
        <time>2020-02-02T14:39:11Z</time>
      </trkpt>
      <trkpt lat="42.95268" lon="0.90515">
        <ele>1143</ele>
        <time>2020-02-02T14:39:15Z</time>
      </trkpt>
      <trkpt lat="42.95259" lon="0.90525">
        <ele>1136</ele>
        <time>2020-02-02T14:40:40Z</time>
      </trkpt>
      <trkpt lat="42.9525" lon="0.90524">
        <ele>1133</ele>
        <time>2020-02-02T14:43:51Z</time>
      </trkpt>
      <trkpt lat="42.9524" lon="0.90525">
        <ele>1132</ele>
        <time>2020-02-02T14:44:10Z</time>
      </trkpt>
      <trkpt lat="42.95231" lon="0.90522">
        <ele>1134</ele>
        <time>2020-02-02T14:44:19Z</time>
      </trkpt>
      <trkpt lat="42.95223" lon="0.9052">
        <ele>1133</ele>
        <time>2020-02-02T14:44:29Z</time>
      </trkpt>
      <trkpt lat="42.95215" lon="0.90511">
        <ele>1132</ele>
        <time>2020-02-02T14:44:41Z</time>
      </trkpt>
      <trkpt lat="42.95208" lon="0.905">
        <ele>1135</ele>
        <time>2020-02-02T14:44:47Z</time>
      </trkpt>
      <trkpt lat="42.95199" lon="0.90495">
        <ele>1135</ele>
        <time>2020-02-02T14:44:55Z</time>
      </trkpt>
      <trkpt lat="42.95195" lon="0.90482">
        <ele>1129</ele>
        <time>2020-02-02T14:45:02Z</time>
      </trkpt>
      <trkpt lat="42.95195" lon="0.90469">
        <ele>1132</ele>
        <time>2020-02-02T14:45:11Z</time>
      </trkpt>
      <trkpt lat="42.95185" lon="0.90464">
        <ele>1126</ele>
        <time>2020-02-02T14:45:18Z</time>
      </trkpt>
      <trkpt lat="42.95178" lon="0.90456">
        <ele>1127</ele>
        <time>2020-02-02T14:45:27Z</time>
      </trkpt>
      <trkpt lat="42.95172" lon="0.90445">
        <ele>1129</ele>
        <time>2020-02-02T14:45:37Z</time>
      </trkpt>
      <trkpt lat="42.95164" lon="0.90437">
        <ele>1129</ele>
        <time>2020-02-02T14:45:42Z</time>
      </trkpt>
      <trkpt lat="42.95154" lon="0.90429">
        <ele>1130</ele>
        <time>2020-02-02T14:45:50Z</time>
      </trkpt>
      <trkpt lat="42.95149" lon="0.90418">
        <ele>1134</ele>
        <time>2020-02-02T14:45:57Z</time>
      </trkpt>
      <trkpt lat="42.95145" lon="0.90406">
        <ele>1133</ele>
        <time>2020-02-02T14:46:03Z</time>
      </trkpt>
      <trkpt lat="42.95133" lon="0.90404">
        <ele>1128</ele>
        <time>2020-02-02T14:46:11Z</time>
      </trkpt>
      <trkpt lat="42.95127" lon="0.90393">
        <ele>1129</ele>
        <time>2020-02-02T14:46:17Z</time>
      </trkpt>
      <trkpt lat="42.95123" lon="0.90382">
        <ele>1133</ele>
        <time>2020-02-02T14:46:23Z</time>
      </trkpt>
      <trkpt lat="42.95118" lon="0.90371">
        <ele>1132</ele>
        <time>2020-02-02T14:46:31Z</time>
      </trkpt>
      <trkpt lat="42.95111" lon="0.9036">
        <ele>1131</ele>
        <time>2020-02-02T14:46:39Z</time>
      </trkpt>
      <trkpt lat="42.95104" lon="0.90352">
        <ele>1130</ele>
        <time>2020-02-02T14:46:45Z</time>
      </trkpt>
      <trkpt lat="42.95098" lon="0.90341">
        <ele>1130</ele>
        <time>2020-02-02T14:46:54Z</time>
      </trkpt>
      <trkpt lat="42.95094" lon="0.90329">
        <ele>1129</ele>
        <time>2020-02-02T14:47:03Z</time>
      </trkpt>
      <trkpt lat="42.9509" lon="0.90317">
        <ele>1124</ele>
        <time>2020-02-02T14:47:11Z</time>
      </trkpt>
      <trkpt lat="42.95086" lon="0.90303">
        <ele>1125</ele>
        <time>2020-02-02T14:47:20Z</time>
      </trkpt>
      <trkpt lat="42.95078" lon="0.90295">
        <ele>1122</ele>
        <time>2020-02-02T14:47:27Z</time>
      </trkpt>
      <trkpt lat="42.95079" lon="0.90282">
        <ele>1123</ele>
        <time>2020-02-02T14:47:35Z</time>
      </trkpt>
      <trkpt lat="42.95076" lon="0.90269">
        <ele>1123</ele>
        <time>2020-02-02T14:47:44Z</time>
      </trkpt>
      <trkpt lat="42.95071" lon="0.90257">
        <ele>1121</ele>
        <time>2020-02-02T14:47:53Z</time>
      </trkpt>
      <trkpt lat="42.95064" lon="0.90246">
        <ele>1120</ele>
        <time>2020-02-02T14:48:01Z</time>
      </trkpt>
      <trkpt lat="42.95059" lon="0.90233">
        <ele>1118</ele>
        <time>2020-02-02T14:48:10Z</time>
      </trkpt>
      <trkpt lat="42.95052" lon="0.90224">
        <ele>1122</ele>
        <time>2020-02-02T14:48:19Z</time>
      </trkpt>
      <trkpt lat="42.95044" lon="0.90217">
        <ele>1119</ele>
        <time>2020-02-02T14:48:24Z</time>
      </trkpt>
      <trkpt lat="42.95036" lon="0.90208">
        <ele>1116</ele>
        <time>2020-02-02T14:48:29Z</time>
      </trkpt>
      <trkpt lat="42.95028" lon="0.90201">
        <ele>1114</ele>
        <time>2020-02-02T14:48:37Z</time>
      </trkpt>
      <trkpt lat="42.95022" lon="0.90191">
        <ele>1115</ele>
        <time>2020-02-02T14:48:45Z</time>
      </trkpt>
      <trkpt lat="42.95014" lon="0.90181">
        <ele>1113</ele>
        <time>2020-02-02T14:48:52Z</time>
      </trkpt>
      <trkpt lat="42.95007" lon="0.90172">
        <ele>1109</ele>
        <time>2020-02-02T14:48:58Z</time>
      </trkpt>
      <trkpt lat="42.95001" lon="0.90163">
        <ele>1111</ele>
        <time>2020-02-02T14:49:06Z</time>
      </trkpt>
      <trkpt lat="42.94993" lon="0.90156">
        <ele>1109</ele>
        <time>2020-02-02T14:49:15Z</time>
      </trkpt>
      <trkpt lat="42.94987" lon="0.90147">
        <ele>1108</ele>
        <time>2020-02-02T14:49:25Z</time>
      </trkpt>
      <trkpt lat="42.94981" lon="0.90137">
        <ele>1105</ele>
        <time>2020-02-02T14:49:34Z</time>
      </trkpt>
      <trkpt lat="42.94973" lon="0.90132">
        <ele>1099</ele>
        <time>2020-02-02T14:49:59Z</time>
      </trkpt>
      <trkpt lat="42.94963" lon="0.90132">
        <ele>1093</ele>
        <time>2020-02-02T14:50:02Z</time>
      </trkpt>
      <trkpt lat="42.94953" lon="0.90124">
        <ele>1088</ele>
        <time>2020-02-02T14:50:07Z</time>
      </trkpt>
      <trkpt lat="42.94944" lon="0.90124">
        <ele>1086</ele>
        <time>2020-02-02T14:50:12Z</time>
      </trkpt>
      <trkpt lat="42.94933" lon="0.90123">
        <ele>1088</ele>
        <time>2020-02-02T14:50:16Z</time>
      </trkpt>
      <trkpt lat="42.94924" lon="0.90116">
        <ele>1089</ele>
        <time>2020-02-02T14:50:23Z</time>
      </trkpt>
      <trkpt lat="42.94915" lon="0.90112">
        <ele>1091</ele>
        <time>2020-02-02T14:50:28Z</time>
      </trkpt>
      <trkpt lat="42.94905" lon="0.90108">
        <ele>1088</ele>
        <time>2020-02-02T14:50:35Z</time>
      </trkpt>
      <trkpt lat="42.94897" lon="0.90103">
        <ele>1085</ele>
        <time>2020-02-02T14:50:43Z</time>
      </trkpt>
      <trkpt lat="42.94886" lon="0.90104">
        <ele>1083</ele>
        <time>2020-02-02T14:50:49Z</time>
      </trkpt>
      <trkpt lat="42.94876" lon="0.90105">
        <ele>1080</ele>
        <time>2020-02-02T14:50:56Z</time>
      </trkpt>
      <trkpt lat="42.94866" lon="0.90106">
        <ele>1078</ele>
        <time>2020-02-02T14:51:03Z</time>
      </trkpt>
      <trkpt lat="42.94856" lon="0.90105">
        <ele>1074</ele>
        <time>2020-02-02T14:51:12Z</time>
      </trkpt>
      <trkpt lat="42.94847" lon="0.90105">
        <ele>1075</ele>
        <time>2020-02-02T14:51:20Z</time>
      </trkpt>
      <trkpt lat="42.94837" lon="0.90107">
        <ele>1074</ele>
        <time>2020-02-02T14:51:31Z</time>
      </trkpt>
      <trkpt lat="42.94828" lon="0.90111">
        <ele>1072</ele>
        <time>2020-02-02T14:51:38Z</time>
      </trkpt>
      <trkpt lat="42.94822" lon="0.90101">
        <ele>1069</ele>
        <time>2020-02-02T14:51:54Z</time>
      </trkpt>
      <trkpt lat="42.94816" lon="0.90092">
        <ele>1070</ele>
        <time>2020-02-02T14:52:03Z</time>
      </trkpt>
      <trkpt lat="42.94807" lon="0.90092">
        <ele>1068</ele>
        <time>2020-02-02T14:52:09Z</time>
      </trkpt>
      <trkpt lat="42.94798" lon="0.90089">
        <ele>1068</ele>
        <time>2020-02-02T14:52:16Z</time>
      </trkpt>
      <trkpt lat="42.94786" lon="0.9009">
        <ele>1064</ele>
        <time>2020-02-02T14:52:22Z</time>
      </trkpt>
      <trkpt lat="42.94777" lon="0.90086">
        <ele>1062</ele>
        <time>2020-02-02T14:52:29Z</time>
      </trkpt>
      <trkpt lat="42.94767" lon="0.90087">
        <ele>1060</ele>
        <time>2020-02-02T14:52:35Z</time>
      </trkpt>
      <trkpt lat="42.94759" lon="0.90092">
        <ele>1059</ele>
        <time>2020-02-02T14:52:38Z</time>
      </trkpt>
      <trkpt lat="42.94749" lon="0.90095">
        <ele>1058</ele>
        <time>2020-02-02T14:52:44Z</time>
      </trkpt>
      <trkpt lat="42.9474" lon="0.90093">
        <ele>1058</ele>
        <time>2020-02-02T14:52:53Z</time>
      </trkpt>
      <trkpt lat="42.9473" lon="0.901">
        <ele>1054</ele>
        <time>2020-02-02T15:06:01Z</time>
      </trkpt>
      <trkpt lat="42.94725" lon="0.90087">
        <ele>1058</ele>
        <time>2020-02-02T15:08:43Z</time>
      </trkpt>
      <trkpt lat="42.94715" lon="0.90093">
        <ele>1058</ele>
        <time>2020-02-02T15:08:49Z</time>
      </trkpt>
      <trkpt lat="42.94706" lon="0.90102">
        <ele>1057</ele>
        <time>2020-02-02T15:08:56Z</time>
      </trkpt>
      <trkpt lat="42.94697" lon="0.90104">
        <ele>1053</ele>
        <time>2020-02-02T15:09:04Z</time>
      </trkpt>
      <trkpt lat="42.94689" lon="0.90111">
        <ele>1049</ele>
        <time>2020-02-02T15:09:13Z</time>
      </trkpt>
      <trkpt lat="42.94682" lon="0.9012">
        <ele>1050</ele>
        <time>2020-02-02T15:09:21Z</time>
      </trkpt>
      <trkpt lat="42.94675" lon="0.90128">
        <ele>1051</ele>
        <time>2020-02-02T15:09:26Z</time>
      </trkpt>
      <trkpt lat="42.94668" lon="0.90136">
        <ele>1050</ele>
        <time>2020-02-02T15:09:43Z</time>
      </trkpt>
      <trkpt lat="42.94659" lon="0.90143">
        <ele>1049</ele>
        <time>2020-02-02T15:09:49Z</time>
      </trkpt>
      <trkpt lat="42.94654" lon="0.90153">
        <ele>1051</ele>
        <time>2020-02-02T15:09:58Z</time>
      </trkpt>
      <trkpt lat="42.94644" lon="0.90157">
        <ele>1049</ele>
        <time>2020-02-02T15:10:06Z</time>
      </trkpt>
      <trkpt lat="42.94633" lon="0.9016">
        <ele>1045</ele>
        <time>2020-02-02T15:10:13Z</time>
      </trkpt>
      <trkpt lat="42.94623" lon="0.90171">
        <ele>1046</ele>
        <time>2020-02-02T15:10:36Z</time>
      </trkpt>
      <trkpt lat="42.94615" lon="0.90177">
        <ele>1046</ele>
        <time>2020-02-02T15:10:39Z</time>
      </trkpt>
      <trkpt lat="42.94605" lon="0.90181">
        <ele>1042</ele>
        <time>2020-02-02T15:10:44Z</time>
      </trkpt>
      <trkpt lat="42.94597" lon="0.90186">
        <ele>1045</ele>
        <time>2020-02-02T15:10:51Z</time>
      </trkpt>
      <trkpt lat="42.94588" lon="0.90192">
        <ele>1043</ele>
        <time>2020-02-02T15:10:57Z</time>
      </trkpt>
      <trkpt lat="42.94578" lon="0.90198">
        <ele>1044</ele>
        <time>2020-02-02T15:11:07Z</time>
      </trkpt>
      <trkpt lat="42.9457" lon="0.90202">
        <ele>1046</ele>
        <time>2020-02-02T15:11:15Z</time>
      </trkpt>
      <trkpt lat="42.94561" lon="0.90207">
        <ele>1043</ele>
        <time>2020-02-02T15:11:21Z</time>
      </trkpt>
      <trkpt lat="42.94552" lon="0.9021">
        <ele>1042</ele>
        <time>2020-02-02T15:11:29Z</time>
      </trkpt>
      <trkpt lat="42.94543" lon="0.90217">
        <ele>1038</ele>
        <time>2020-02-02T15:11:36Z</time>
      </trkpt>
      <trkpt lat="42.94534" lon="0.90222">
        <ele>1037</ele>
        <time>2020-02-02T15:11:43Z</time>
      </trkpt>
      <trkpt lat="42.94526" lon="0.90227">
        <ele>1037</ele>
        <time>2020-02-02T15:11:50Z</time>
      </trkpt>
      <trkpt lat="42.94517" lon="0.90232">
        <ele>1038</ele>
        <time>2020-02-02T15:11:59Z</time>
      </trkpt>
      <trkpt lat="42.94509" lon="0.90239">
        <ele>1036</ele>
        <time>2020-02-02T15:12:08Z</time>
      </trkpt>
      <trkpt lat="42.945" lon="0.90242">
        <ele>1039</ele>
        <time>2020-02-02T15:12:15Z</time>
      </trkpt>
      <trkpt lat="42.9449" lon="0.90249">
        <ele>1034</ele>
        <time>2020-02-02T15:12:29Z</time>
      </trkpt>
      <trkpt lat="42.94481" lon="0.90255">
        <ele>1034</ele>
        <time>2020-02-02T15:12:39Z</time>
      </trkpt>
      <trkpt lat="42.94472" lon="0.90261">
        <ele>1032</ele>
        <time>2020-02-02T15:12:45Z</time>
      </trkpt>
      <trkpt lat="42.94463" lon="0.90264">
        <ele>1031</ele>
        <time>2020-02-02T15:12:55Z</time>
      </trkpt>
      <trkpt lat="42.94455" lon="0.90271">
        <ele>1028</ele>
        <time>2020-02-02T15:13:01Z</time>
      </trkpt>
      <trkpt lat="42.94446" lon="0.90276">
        <ele>1032</ele>
        <time>2020-02-02T15:13:11Z</time>
      </trkpt>
      <trkpt lat="42.94437" lon="0.90281">
        <ele>1027</ele>
        <time>2020-02-02T15:13:18Z</time>
      </trkpt>
      <trkpt lat="42.94428" lon="0.90284">
        <ele>1025</ele>
        <time>2020-02-02T15:13:26Z</time>
      </trkpt>
      <trkpt lat="42.94421" lon="0.90293">
        <ele>1016</ele>
        <time>2020-02-02T15:13:36Z</time>
      </trkpt>
      <trkpt lat="42.94411" lon="0.90295">
        <ele>1021</ele>
        <time>2020-02-02T15:13:44Z</time>
      </trkpt>
      <trkpt lat="42.944" lon="0.90301">
        <ele>1016</ele>
        <time>2020-02-02T15:13:53Z</time>
      </trkpt>
      <trkpt lat="42.94391" lon="0.90303">
        <ele>1013</ele>
        <time>2020-02-02T15:14:01Z</time>
      </trkpt>
      <trkpt lat="42.94382" lon="0.90309">
        <ele>1012</ele>
        <time>2020-02-02T15:14:09Z</time>
      </trkpt>
      <trkpt lat="42.94374" lon="0.90314">
        <ele>1011</ele>
        <time>2020-02-02T15:14:16Z</time>
      </trkpt>
      <trkpt lat="42.94363" lon="0.90318">
        <ele>1015</ele>
        <time>2020-02-02T15:14:27Z</time>
      </trkpt>
      <trkpt lat="42.94354" lon="0.90324">
        <ele>1019</ele>
        <time>2020-02-02T15:14:35Z</time>
      </trkpt>
      <trkpt lat="42.94344" lon="0.90331">
        <ele>1017</ele>
        <time>2020-02-02T15:14:44Z</time>
      </trkpt>
      <trkpt lat="42.94337" lon="0.90339">
        <ele>1012</ele>
        <time>2020-02-02T15:14:52Z</time>
      </trkpt>
      <trkpt lat="42.94332" lon="0.9035">
        <ele>1014</ele>
        <time>2020-02-02T15:14:58Z</time>
      </trkpt>
      <trkpt lat="42.94324" lon="0.90358">
        <ele>1009</ele>
        <time>2020-02-02T15:15:05Z</time>
      </trkpt>
      <trkpt lat="42.94325" lon="0.90371">
        <ele>1008</ele>
        <time>2020-02-02T15:15:12Z</time>
      </trkpt>
      <trkpt lat="42.94329" lon="0.90382">
        <ele>1003</ele>
        <time>2020-02-02T15:15:20Z</time>
      </trkpt>
      <trkpt lat="42.94324" lon="0.90394">
        <ele>1006</ele>
        <time>2020-02-02T15:15:32Z</time>
      </trkpt>
      <trkpt lat="42.94316" lon="0.90403">
        <ele>1002</ele>
        <time>2020-02-02T15:15:39Z</time>
      </trkpt>
      <trkpt lat="42.94318" lon="0.90415">
        <ele>1001</ele>
        <time>2020-02-02T15:15:48Z</time>
      </trkpt>
      <trkpt lat="42.94318" lon="0.90428">
        <ele>1000</ele>
        <time>2020-02-02T15:16:00Z</time>
      </trkpt>
      <trkpt lat="42.94314" lon="0.9044">
        <ele>1003</ele>
        <time>2020-02-02T15:16:08Z</time>
      </trkpt>
      <trkpt lat="42.94313" lon="0.90452">
        <ele>1002</ele>
        <time>2020-02-02T15:16:15Z</time>
      </trkpt>
      <trkpt lat="42.94311" lon="0.90465">
        <ele>1001</ele>
        <time>2020-02-02T15:16:23Z</time>
      </trkpt>
      <trkpt lat="42.94312" lon="0.90478">
        <ele>1001</ele>
        <time>2020-02-02T15:16:31Z</time>
      </trkpt>
      <trkpt lat="42.94314" lon="0.90491">
        <ele>998</ele>
        <time>2020-02-02T15:16:40Z</time>
      </trkpt>
      <trkpt lat="42.94316" lon="0.90504">
        <ele>996</ele>
        <time>2020-02-02T15:16:49Z</time>
      </trkpt>
      <trkpt lat="42.94319" lon="0.90516">
        <ele>995</ele>
        <time>2020-02-02T15:16:56Z</time>
      </trkpt>
      <trkpt lat="42.9432" lon="0.90529">
        <ele>992</ele>
        <time>2020-02-02T15:17:05Z</time>
      </trkpt>
      <trkpt lat="42.94321" lon="0.90543">
        <ele>991</ele>
        <time>2020-02-02T15:17:16Z</time>
      </trkpt>
      <trkpt lat="42.94318" lon="0.90555">
        <ele>993</ele>
        <time>2020-02-02T15:17:27Z</time>
      </trkpt>
      <trkpt lat="42.94314" lon="0.90568">
        <ele>994</ele>
        <time>2020-02-02T15:17:39Z</time>
      </trkpt>
      <trkpt lat="42.94314" lon="0.90581">
        <ele>989</ele>
        <time>2020-02-02T15:17:50Z</time>
      </trkpt>
      <trkpt lat="42.94315" lon="0.90593">
        <ele>991</ele>
        <time>2020-02-02T15:17:58Z</time>
      </trkpt>
      <trkpt lat="42.94315" lon="0.90607">
        <ele>986</ele>
        <time>2020-02-02T15:18:06Z</time>
      </trkpt>
      <trkpt lat="42.94315" lon="0.90621">
        <ele>981</ele>
        <time>2020-02-02T15:18:16Z</time>
      </trkpt>
      <trkpt lat="42.94312" lon="0.90634">
        <ele>981</ele>
        <time>2020-02-02T15:18:25Z</time>
      </trkpt>
      <trkpt lat="42.94314" lon="0.90646">
        <ele>977</ele>
        <time>2020-02-02T15:18:35Z</time>
      </trkpt>
      <trkpt lat="42.94309" lon="0.90659">
        <ele>978</ele>
        <time>2020-02-02T15:18:43Z</time>
      </trkpt>
      <trkpt lat="42.94308" lon="0.90671">
        <ele>975</ele>
        <time>2020-02-02T15:18:52Z</time>
      </trkpt>
      <trkpt lat="42.94308" lon="0.90685">
        <ele>971</ele>
        <time>2020-02-02T15:19:02Z</time>
      </trkpt>
      <trkpt lat="42.94307" lon="0.90698">
        <ele>970</ele>
        <time>2020-02-02T15:19:12Z</time>
      </trkpt>
      <trkpt lat="42.94303" lon="0.90711">
        <ele>971</ele>
        <time>2020-02-02T15:19:21Z</time>
      </trkpt>
      <trkpt lat="42.94304" lon="0.90723">
        <ele>968</ele>
        <time>2020-02-02T15:19:29Z</time>
      </trkpt>
      <trkpt lat="42.94305" lon="0.90737">
        <ele>971</ele>
        <time>2020-02-02T15:19:39Z</time>
      </trkpt>
      <trkpt lat="42.94299" lon="0.90746">
        <ele>971</ele>
        <time>2020-02-02T15:19:46Z</time>
      </trkpt>
      <trkpt lat="42.94292" lon="0.90756">
        <ele>968</ele>
        <time>2020-02-02T15:19:56Z</time>
      </trkpt>
      <trkpt lat="42.94286" lon="0.90764">
        <ele>969</ele>
        <time>2020-02-02T15:20:04Z</time>
      </trkpt>
      <trkpt lat="42.94277" lon="0.9077">
        <ele>965</ele>
        <time>2020-02-02T15:20:14Z</time>
      </trkpt>
      <trkpt lat="42.9427" lon="0.9078">
        <ele>962</ele>
        <time>2020-02-02T15:20:26Z</time>
      </trkpt>
      <trkpt lat="42.94263" lon="0.90792">
        <ele>962</ele>
        <time>2020-02-02T15:20:36Z</time>
      </trkpt>
      <trkpt lat="42.94255" lon="0.90801">
        <ele>958</ele>
        <time>2020-02-02T15:20:44Z</time>
      </trkpt>
      <trkpt lat="42.94248" lon="0.90808">
        <ele>958</ele>
        <time>2020-02-02T15:20:53Z</time>
      </trkpt>
      <trkpt lat="42.94243" lon="0.90821">
        <ele>954</ele>
        <time>2020-02-02T15:21:00Z</time>
      </trkpt>
      <trkpt lat="42.94237" lon="0.9083">
        <ele>957</ele>
        <time>2020-02-02T15:21:09Z</time>
      </trkpt>
      <trkpt lat="42.94233" lon="0.90841">
        <ele>954</ele>
        <time>2020-02-02T15:21:17Z</time>
      </trkpt>
      <trkpt lat="42.94224" lon="0.90843">
        <ele>950</ele>
        <time>2020-02-02T15:21:24Z</time>
      </trkpt>
      <trkpt lat="42.94214" lon="0.90845">
        <ele>950</ele>
        <time>2020-02-02T15:21:31Z</time>
      </trkpt>
      <trkpt lat="42.94206" lon="0.90856">
        <ele>950</ele>
        <time>2020-02-02T15:21:39Z</time>
      </trkpt>
      <trkpt lat="42.94201" lon="0.90867">
        <ele>950</ele>
        <time>2020-02-02T15:21:48Z</time>
      </trkpt>
      <trkpt lat="42.9419" lon="0.90871">
        <ele>951</ele>
        <time>2020-02-02T15:21:57Z</time>
      </trkpt>
      <trkpt lat="42.94183" lon="0.90878">
        <ele>954</ele>
        <time>2020-02-02T15:22:04Z</time>
      </trkpt>
      <trkpt lat="42.94175" lon="0.90886">
        <ele>950</ele>
        <time>2020-02-02T15:22:13Z</time>
      </trkpt>
      <trkpt lat="42.9417" lon="0.90896">
        <ele>950</ele>
        <time>2020-02-02T15:22:23Z</time>
      </trkpt>
      <trkpt lat="42.94161" lon="0.90904">
        <ele>948</ele>
        <time>2020-02-02T15:22:32Z</time>
      </trkpt>
      <trkpt lat="42.94153" lon="0.90914">
        <ele>950</ele>
        <time>2020-02-02T15:22:40Z</time>
      </trkpt>
      <trkpt lat="42.94145" lon="0.90921">
        <ele>945</ele>
        <time>2020-02-02T15:22:48Z</time>
      </trkpt>
      <trkpt lat="42.94139" lon="0.90931">
        <ele>952</ele>
        <time>2020-02-02T15:22:55Z</time>
      </trkpt>
      <trkpt lat="42.94129" lon="0.90937">
        <ele>951</ele>
        <time>2020-02-02T15:23:03Z</time>
      </trkpt>
      <trkpt lat="42.9412" lon="0.90939">
        <ele>950</ele>
        <time>2020-02-02T15:23:11Z</time>
      </trkpt>
      <trkpt lat="42.94112" lon="0.90945">
        <ele>945</ele>
        <time>2020-02-02T15:23:18Z</time>
      </trkpt>
      <trkpt lat="42.94105" lon="0.90953">
        <ele>943</ele>
        <time>2020-02-02T15:23:28Z</time>
      </trkpt>
      <trkpt lat="42.94099" lon="0.90963">
        <ele>942</ele>
        <time>2020-02-02T15:23:34Z</time>
      </trkpt>
      <trkpt lat="42.9409" lon="0.90968">
        <ele>942</ele>
        <time>2020-02-02T15:23:41Z</time>
      </trkpt>
      <trkpt lat="42.94082" lon="0.90975">
        <ele>941</ele>
        <time>2020-02-02T15:23:48Z</time>
      </trkpt>
      <trkpt lat="42.94073" lon="0.90977">
        <ele>940</ele>
        <time>2020-02-02T15:23:56Z</time>
      </trkpt>
      <trkpt lat="42.94064" lon="0.90984">
        <ele>938</ele>
        <time>2020-02-02T15:24:07Z</time>
      </trkpt>
      <trkpt lat="42.94058" lon="0.90992">
        <ele>938</ele>
        <time>2020-02-02T15:24:13Z</time>
      </trkpt>
      <trkpt lat="42.94054" lon="0.91005">
        <ele>934</ele>
        <time>2020-02-02T15:24:19Z</time>
      </trkpt>
      <trkpt lat="42.94046" lon="0.91011">
        <ele>932</ele>
        <time>2020-02-02T15:24:26Z</time>
      </trkpt>
      <trkpt lat="42.94038" lon="0.91017">
        <ele>931</ele>
        <time>2020-02-02T15:24:32Z</time>
      </trkpt>
      <trkpt lat="42.94031" lon="0.91025">
        <ele>932</ele>
        <time>2020-02-02T15:24:41Z</time>
      </trkpt>
      <trkpt lat="42.94022" lon="0.91031">
        <ele>927</ele>
        <time>2020-02-02T15:24:51Z</time>
      </trkpt>
      <trkpt lat="42.94015" lon="0.91039">
        <ele>926</ele>
        <time>2020-02-02T15:24:58Z</time>
      </trkpt>
      <trkpt lat="42.94006" lon="0.91046">
        <ele>926</ele>
        <time>2020-02-02T15:25:07Z</time>
      </trkpt>
      <trkpt lat="42.93998" lon="0.91052">
        <ele>924</ele>
        <time>2020-02-02T15:25:14Z</time>
      </trkpt>
      <trkpt lat="42.93991" lon="0.9106">
        <ele>925</ele>
        <time>2020-02-02T15:25:25Z</time>
      </trkpt>
      <trkpt lat="42.93981" lon="0.91065">
        <ele>918</ele>
        <time>2020-02-02T15:25:34Z</time>
      </trkpt>
      <trkpt lat="42.93974" lon="0.91075">
        <ele>912</ele>
        <time>2020-02-02T15:25:43Z</time>
      </trkpt>
      <trkpt lat="42.93965" lon="0.91083">
        <ele>914</ele>
        <time>2020-02-02T15:25:50Z</time>
      </trkpt>
      <trkpt lat="42.93956" lon="0.91091">
        <ele>909</ele>
        <time>2020-02-02T15:26:01Z</time>
      </trkpt>
      <trkpt lat="42.93945" lon="0.91093">
        <ele>910</ele>
        <time>2020-02-02T15:26:08Z</time>
      </trkpt>
      <trkpt lat="42.93936" lon="0.91097">
        <ele>911</ele>
        <time>2020-02-02T15:26:15Z</time>
      </trkpt>
      <trkpt lat="42.9393" lon="0.91105">
        <ele>912</ele>
        <time>2020-02-02T15:26:21Z</time>
      </trkpt>
      <trkpt lat="42.93921" lon="0.91109">
        <ele>908</ele>
        <time>2020-02-02T15:26:29Z</time>
      </trkpt>
      <trkpt lat="42.93912" lon="0.91116">
        <ele>903</ele>
        <time>2020-02-02T15:26:39Z</time>
      </trkpt>
      <trkpt lat="42.93905" lon="0.91126">
        <ele>902</ele>
        <time>2020-02-02T15:26:46Z</time>
      </trkpt>
      <trkpt lat="42.93896" lon="0.91132">
        <ele>902</ele>
        <time>2020-02-02T15:26:55Z</time>
      </trkpt>
      <trkpt lat="42.93889" lon="0.91139">
        <ele>900</ele>
        <time>2020-02-02T15:27:03Z</time>
      </trkpt>
      <trkpt lat="42.93881" lon="0.91148">
        <ele>899</ele>
        <time>2020-02-02T15:27:10Z</time>
      </trkpt>
      <trkpt lat="42.93872" lon="0.91154">
        <ele>901</ele>
        <time>2020-02-02T15:27:18Z</time>
      </trkpt>
      <trkpt lat="42.93867" lon="0.91164">
        <ele>901</ele>
        <time>2020-02-02T15:27:25Z</time>
      </trkpt>
      <trkpt lat="42.93861" lon="0.91173">
        <ele>900</ele>
        <time>2020-02-02T15:27:32Z</time>
      </trkpt>
      <trkpt lat="42.9386" lon="0.91187">
        <ele>898</ele>
        <time>2020-02-02T15:27:40Z</time>
      </trkpt>
      <trkpt lat="42.93853" lon="0.91195">
        <ele>900</ele>
        <time>2020-02-02T15:27:47Z</time>
      </trkpt>
      <trkpt lat="42.93846" lon="0.91206">
        <ele>897</ele>
        <time>2020-02-02T15:27:56Z</time>
      </trkpt>
      <trkpt lat="42.93837" lon="0.9121">
        <ele>897</ele>
        <time>2020-02-02T15:28:02Z</time>
      </trkpt>
      <trkpt lat="42.93827" lon="0.91212">
        <ele>894</ele>
        <time>2020-02-02T15:28:13Z</time>
      </trkpt>
      <trkpt lat="42.93818" lon="0.91212">
        <ele>893</ele>
        <time>2020-02-02T15:28:21Z</time>
      </trkpt>
      <trkpt lat="42.93809" lon="0.91209">
        <ele>894</ele>
        <time>2020-02-02T15:28:28Z</time>
      </trkpt>
      <trkpt lat="42.93799" lon="0.91211">
        <ele>891</ele>
        <time>2020-02-02T15:28:37Z</time>
      </trkpt>
      <trkpt lat="42.9379" lon="0.91211">
        <ele>889</ele>
        <time>2020-02-02T15:28:44Z</time>
      </trkpt>
      <trkpt lat="42.93781" lon="0.91209">
        <ele>889</ele>
        <time>2020-02-02T15:28:49Z</time>
      </trkpt>
      <trkpt lat="42.9377" lon="0.91212">
        <ele>888</ele>
        <time>2020-02-02T15:28:59Z</time>
      </trkpt>
      <trkpt lat="42.93761" lon="0.91211">
        <ele>886</ele>
        <time>2020-02-02T15:29:06Z</time>
      </trkpt>
      <trkpt lat="42.93752" lon="0.91208">
        <ele>889</ele>
        <time>2020-02-02T15:29:13Z</time>
      </trkpt>
      <trkpt lat="42.93743" lon="0.91206">
        <ele>886</ele>
        <time>2020-02-02T15:29:22Z</time>
      </trkpt>
      <trkpt lat="42.93733" lon="0.91202">
        <ele>884</ele>
        <time>2020-02-02T15:29:31Z</time>
      </trkpt>
      <trkpt lat="42.93731" lon="0.91189">
        <ele>887</ele>
        <time>2020-02-02T15:29:41Z</time>
      </trkpt>
      <trkpt lat="42.93725" lon="0.9118">
        <ele>882</ele>
        <time>2020-02-02T15:30:00Z</time>
      </trkpt>
    </trkseg>
  </trk>
</gpx>